Time,TemperatureF,DewpointF,PressureIn,WindDirection,WindDirectionDegrees,WindSpeedMPH,WindSpeedGustMPH,Humidity,HourlyPrecipIn,Conditions,Clouds,dailyrainin,SoftwareType,DateUTC
2013-05-08 00:01:00,56.7,47.0,29.97,East,86,0.0,0.0,70,0.00,,,0.00,Wunderground v.1.15,2013-05-08 05:01:00,
2013-05-08 00:02:00,56.6,48.0,29.97,East,86,0.0,0.0,73,0.00,,,0.00,Wunderground v.1.15,2013-05-08 05:02:00,
2013-05-08 00:04:00,56.3,48.1,29.97,East,86,0.0,0.0,74,0.00,,,0.00,Wunderground v.1.15,2013-05-08 05:04:00,
2013-05-08 00:06:00,56.0,48.2,29.97,East,86,0.0,0.0,75,0.00,,,0.00,Wunderground v.1.15,2013-05-08 05:06:00,
2013-05-08 00:08:00,55.6,46.7,29.97,NNE,31,0.0,0.0,72,0.00,,,0.00,Wunderground v.1.15,2013-05-08 05:08:00,
2013-05-08 00:09:00,55.6,47.4,29.97,NNE,31,0.0,0.0,74,0.00,,,0.00,Wunderground v.1.15,2013-05-08 05:09:00,
2013-05-08 00:11:00,55.4,47.6,29.97,NNE,32,0.0,0.0,75,0.00,,,0.00,Wunderground v.1.15,2013-05-08 05:11:00,
2013-05-08 00:15:00,55.0,47.6,29.97,NNE,31,0.0,0.0,76,0.00,,,0.00,Wunderground v.1.15,2013-05-08 05:15:00,
2013-05-08 00:16:00,55.0,47.6,29.97,NNE,31,0.0,0.0,76,0.00,,,0.00,Wunderground v.1.15,2013-05-08 05:16:00,
2013-05-08 00:17:00,54.9,47.5,29.97,NNE,31,0.0,0.0,76,0.00,,,0.00,Wunderground v.1.15,2013-05-08 05:17:00,
2013-05-08 00:18:00,54.9,47.5,29.97,NNE,32,0.0,0.0,76,0.00,,,0.00,Wunderground v.1.15,2013-05-08 05:18:00,
2013-05-08 00:22:00,54.5,48.1,29.97,NNE,32,0.0,0.0,79,0.00,,,0.00,Wunderground v.1.15,2013-05-08 05:22:00,
2013-05-08 00:24:00,54.3,47.6,29.97,NNE,32,0.0,0.0,78,0.00,,,0.00,Wunderground v.1.15,2013-05-08 05:24:00,
2013-05-08 00:25:00,54.3,47.6,29.97,NNE,32,0.0,0.0,78,0.00,,,0.00,Wunderground v.1.15,2013-05-08 05:25:00,
2013-05-08 00:26:00,54.2,47.8,29.97,NNE,32,0.0,0.0,79,0.00,,,0.00,Wunderground v.1.15,2013-05-08 05:26:00,
2013-05-08 00:28:00,54.1,47.7,29.97,NNE,32,0.0,0.0,79,0.00,,,0.00,Wunderground v.1.15,2013-05-08 05:28:00,
2013-05-08 00:30:00,53.9,47.2,29.97,NNE,32,0.0,0.0,78,0.00,,,0.00,Wunderground v.1.15,2013-05-08 05:30:00,
2013-05-08 00:31:00,53.9,47.2,29.97,NNE,31,0.0,0.0,78,0.00,,,0.00,Wunderground v.1.15,2013-05-08 05:31:00,
2013-05-08 00:35:00,53.6,47.6,29.97,NNE,32,0.0,0.0,80,0.00,,,0.00,Wunderground v.1.15,2013-05-08 05:35:00,
2013-05-08 00:36:00,53.6,47.6,29.97,NNE,32,0.0,0.0,80,0.00,,,0.00,Wunderground v.1.15,2013-05-08 05:36:00,
2013-05-08 00:38:00,53.5,47.8,29.97,NNE,31,0.0,0.0,81,0.00,,,0.00,Wunderground v.1.15,2013-05-08 05:38:00,
2013-05-08 00:39:00,53.5,47.8,29.97,NNE,31,0.0,0.0,81,0.00,,,0.00,Wunderground v.1.15,2013-05-08 05:39:00,
2013-05-08 00:40:00,53.4,47.7,29.97,NNE,31,0.0,0.0,81,0.00,,,0.00,Wunderground v.1.15,2013-05-08 05:40:00,
2013-05-08 00:42:00,53.4,48.0,29.97,NNE,31,0.0,0.0,82,0.00,,,0.00,Wunderground v.1.15,2013-05-08 05:42:00,
2013-05-08 00:47:00,53.3,47.9,29.96,NNE,31,0.0,0.0,82,0.00,,,0.00,Wunderground v.1.15,2013-05-08 05:47:00,
2013-05-08 00:49:00,53.3,48.3,29.96,NNE,31,0.0,0.0,83,0.00,,,0.00,Wunderground v.1.15,2013-05-08 05:49:00,
2013-05-08 00:53:00,53.1,48.1,29.96,NNE,32,0.0,0.0,83,0.00,,,0.00,Wunderground v.1.15,2013-05-08 05:53:00,
2013-05-08 00:57:00,53.2,48.8,29.96,NNE,32,0.0,0.0,85,0.00,,,0.00,Wunderground v.1.15,2013-05-08 05:57:00,
2013-05-08 00:58:00,53.2,48.8,29.96,NNE,32,0.0,0.0,85,0.00,,,0.00,Wunderground v.1.15,2013-05-08 05:58:00,
2013-05-08 00:59:00,53.2,48.8,29.96,NNE,32,0.0,0.0,85,0.00,,,0.00,Wunderground v.1.15,2013-05-08 05:59:00,
2013-05-08 01:02:00,53.2,48.8,29.96,NNE,32,0.0,0.0,85,0.00,,,0.00,Wunderground v.1.15,2013-05-08 06:02:00,
2013-05-08 01:04:00,53.2,48.8,29.96,NNE,31,0.0,0.0,85,0.00,,,0.00,Wunderground v.1.15,2013-05-08 06:04:00,
2013-05-08 01:05:00,53.2,48.8,29.96,NNE,31,0.0,0.0,85,0.00,,,0.00,Wunderground v.1.15,2013-05-08 06:05:00,
2013-05-08 01:09:00,53.3,49.2,29.96,NNE,31,0.0,0.0,86,0.00,,,0.00,Wunderground v.1.15,2013-05-08 06:09:00,
2013-05-08 01:10:00,53.3,49.2,29.96,NNE,32,0.0,0.0,86,0.00,,,0.00,Wunderground v.1.15,2013-05-08 06:10:00,
2013-05-08 01:11:00,53.3,49.2,29.96,NNE,32,0.0,0.0,86,0.00,,,0.00,Wunderground v.1.15,2013-05-08 06:11:00,
2013-05-08 01:12:00,53.3,49.2,29.96,NE,46,0.0,0.0,86,0.00,,,0.00,Wunderground v.1.15,2013-05-08 06:12:00,
2013-05-08 01:16:00,53.4,49.3,29.96,NE,47,0.0,0.0,86,0.00,,,0.00,Wunderground v.1.15,2013-05-08 06:16:00,
2013-05-08 01:19:00,53.4,49.3,29.96,NE,46,0.0,0.0,86,0.00,,,0.00,Wunderground v.1.15,2013-05-08 06:19:00,
2013-05-08 01:23:00,53.4,49.3,29.96,NE,47,0.0,0.0,86,0.00,,,0.00,Wunderground v.1.15,2013-05-08 06:23:00,
2013-05-08 01:24:00,53.3,49.2,29.96,ESE,107,0.0,0.0,86,0.00,,,0.00,Wunderground v.1.15,2013-05-08 06:24:00,
2013-05-08 01:25:00,53.4,49.3,29.96,ESE,107,0.0,0.0,86,0.00,,,0.00,Wunderground v.1.15,2013-05-08 06:25:00,
2013-05-08 01:29:00,53.7,49.6,29.96,ESE,113,0.0,0.0,86,0.00,,,0.00,Wunderground v.1.15,2013-05-08 06:29:00,
2013-05-08 01:31:00,53.9,49.8,29.96,ESE,117,0.0,0.0,86,0.00,,,0.00,Wunderground v.1.15,2013-05-08 06:31:00,
2013-05-08 01:32:00,53.9,49.8,29.96,ESE,117,0.0,0.0,86,0.00,,,0.00,Wunderground v.1.15,2013-05-08 06:32:00,
2013-05-08 01:34:00,54.0,49.6,29.96,ESE,117,0.0,0.0,85,0.00,,,0.00,Wunderground v.1.15,2013-05-08 06:34:00,
2013-05-08 01:35:00,54.0,49.6,29.96,ESE,117,0.0,0.0,85,0.00,,,0.00,Wunderground v.1.15,2013-05-08 06:35:00,
2013-05-08 01:36:00,54.0,49.6,29.96,ESE,117,0.0,0.0,85,0.00,,,0.00,Wunderground v.1.15,2013-05-08 06:36:00,
2013-05-08 01:37:00,54.0,49.6,29.96,ESE,117,0.0,0.0,85,0.00,,,0.00,Wunderground v.1.15,2013-05-08 06:37:00,
2013-05-08 01:40:00,54.1,49.7,29.96,ESE,107,0.0,0.0,85,0.00,,,0.00,Wunderground v.1.15,2013-05-08 06:40:00,
2013-05-08 01:41:00,54.2,49.8,29.96,ESE,108,0.0,0.0,85,0.00,,,0.00,Wunderground v.1.15,2013-05-08 06:41:00,
2013-05-08 01:42:00,54.3,49.9,29.96,ESE,108,0.0,0.0,85,0.00,,,0.00,Wunderground v.1.15,2013-05-08 06:42:00,
2013-05-08 01:43:00,54.4,50.0,29.96,ESE,108,0.0,0.0,85,0.00,,,0.00,Wunderground v.1.15,2013-05-08 06:43:00,
2013-05-08 01:45:00,54.5,49.8,29.96,ESE,108,0.0,0.0,84,0.00,,,0.00,Wunderground v.1.15,2013-05-08 06:45:00,
2013-05-08 01:47:00,54.5,50.1,29.96,ESE,108,0.0,0.0,85,0.00,,,0.00,Wunderground v.1.15,2013-05-08 06:47:00,
2013-05-08 01:48:00,54.4,50.0,29.96,ESE,107,0.0,0.0,85,0.00,,,0.00,Wunderground v.1.15,2013-05-08 06:48:00,
2013-05-08 01:50:00,54.3,50.2,29.96,ESE,108,0.0,0.0,86,0.00,,,0.00,Wunderground v.1.15,2013-05-08 06:50:00,
2013-05-08 01:51:00,54.2,50.1,29.96,ESE,108,0.0,0.0,86,0.00,,,0.00,Wunderground v.1.15,2013-05-08 06:51:00,
2013-05-08 01:55:00,53.9,49.5,29.96,ESE,107,0.0,0.0,85,0.00,,,0.00,Wunderground v.1.15,2013-05-08 06:55:00,
2013-05-08 01:56:00,53.9,49.5,29.96,ESE,108,0.0,0.0,85,0.00,,,0.00,Wunderground v.1.15,2013-05-08 06:56:00,
2013-05-08 01:58:00,54.3,49.6,29.96,ESE,108,0.0,0.0,84,0.00,,,0.00,Wunderground v.1.15,2013-05-08 06:58:00,
2013-05-08 02:01:00,54.7,49.6,29.96,East,100,0.0,0.0,83,0.00,,,0.00,Wunderground v.1.15,2013-05-08 07:01:00,
2013-05-08 02:03:00,54.8,49.4,29.96,East,98,0.0,0.0,82,0.00,,,0.00,Wunderground v.1.15,2013-05-08 07:03:00,
2013-05-08 02:04:00,54.8,49.4,29.96,East,98,0.0,0.0,82,0.00,,,0.00,Wunderground v.1.15,2013-05-08 07:04:00,
2013-05-08 02:06:00,54.8,49.7,29.96,East,98,0.0,0.0,83,0.00,,,0.00,Wunderground v.1.15,2013-05-08 07:06:00,
2013-05-08 02:11:00,54.5,49.4,29.96,East,98,0.0,0.0,83,0.00,,,0.00,Wunderground v.1.15,2013-05-08 07:11:00,
2013-05-08 02:12:00,54.4,49.7,29.96,East,98,0.0,0.0,84,0.00,,,0.00,Wunderground v.1.15,2013-05-08 07:12:00,
2013-05-08 02:13:00,54.4,49.3,29.96,ESE,105,0.0,0.0,83,0.00,,,0.00,Wunderground v.1.15,2013-05-08 07:13:00,
2013-05-08 02:15:00,54.5,49.4,29.96,East,94,0.0,0.0,83,0.00,,,0.00,Wunderground v.1.15,2013-05-08 07:15:00,
2013-05-08 02:16:00,54.7,49.6,29.96,East,86,0.0,0.0,83,0.00,,,0.00,Wunderground v.1.15,2013-05-08 07:16:00,
2013-05-08 02:20:00,55.2,49.5,29.96,East,86,0.0,0.0,81,0.00,,,0.00,Wunderground v.1.15,2013-05-08 07:20:00,
2013-05-08 02:21:00,55.1,49.4,29.96,East,87,0.0,0.0,81,0.00,,,0.00,Wunderground v.1.15,2013-05-08 07:21:00,
2013-05-08 02:22:00,55.0,49.3,29.96,East,88,0.0,0.0,81,0.00,,,0.00,Wunderground v.1.15,2013-05-08 07:22:00,
2013-05-08 02:26:00,54.6,49.2,29.96,East,87,0.0,0.0,82,0.00,,,0.00,Wunderground v.1.15,2013-05-08 07:26:00,
2013-05-08 02:27:00,54.3,48.9,29.96,East,87,0.0,0.0,82,0.00,,,0.00,Wunderground v.1.15,2013-05-08 07:27:00,
2013-05-08 02:28:00,54.2,48.8,29.96,East,87,0.0,0.0,82,0.00,,,0.00,Wunderground v.1.15,2013-05-08 07:28:00,
2013-05-08 02:31:00,53.8,48.8,29.96,East,87,0.0,0.0,83,0.00,,,0.00,Wunderground v.1.15,2013-05-08 07:31:00,
2013-05-08 02:33:00,53.6,49.2,29.96,East,87,0.0,0.0,85,0.00,,,0.00,Wunderground v.1.15,2013-05-08 07:33:00,
2013-05-08 02:35:00,53.4,49.3,29.96,East,88,0.0,0.0,86,0.00,,,0.00,Wunderground v.1.15,2013-05-08 07:35:00,
2013-05-08 02:36:00,53.3,49.2,29.96,East,87,0.0,0.0,86,0.00,,,0.00,Wunderground v.1.15,2013-05-08 07:36:00,
2013-05-08 02:40:00,52.9,49.1,29.96,East,87,0.0,0.0,87,0.00,,,0.00,Wunderground v.1.15,2013-05-08 07:40:00,
2013-05-08 02:42:00,52.7,49.2,29.96,East,87,0.0,0.0,88,0.00,,,0.00,Wunderground v.1.15,2013-05-08 07:42:00,
2013-05-08 02:44:00,52.6,49.1,29.96,East,87,0.0,0.0,88,0.00,,,0.00,Wunderground v.1.15,2013-05-08 07:44:00,
2013-05-08 02:45:00,52.5,49.0,29.96,East,87,0.0,0.0,88,0.00,,,0.00,Wunderground v.1.15,2013-05-08 07:45:00,
2013-05-08 02:46:00,52.4,48.9,29.96,East,88,0.0,0.0,88,0.00,,,0.00,Wunderground v.1.15,2013-05-08 07:46:00,
2013-05-08 02:48:00,52.3,48.9,29.96,East,88,0.0,0.0,88,0.00,,,0.00,Wunderground v.1.15,2013-05-08 07:48:00,
2013-05-08 02:49:00,52.2,48.8,29.96,East,87,0.0,0.0,88,0.00,,,0.00,Wunderground v.1.15,2013-05-08 07:49:00,
2013-05-08 02:51:00,52.1,48.7,29.96,East,87,0.0,0.0,88,0.00,,,0.00,Wunderground v.1.15,2013-05-08 07:51:00,
2013-05-08 02:53:00,52.1,48.7,29.96,East,88,0.0,0.0,88,0.00,,,0.00,Wunderground v.1.15,2013-05-08 07:53:00,
2013-05-08 02:54:00,52.1,48.7,29.96,East,88,0.0,0.0,88,0.00,,,0.00,Wunderground v.1.15,2013-05-08 07:54:00,
2013-05-08 02:55:00,52.0,48.6,29.96,East,88,0.0,0.0,88,0.00,,,0.00,Wunderground v.1.15,2013-05-08 07:55:00,
2013-05-08 02:58:00,52.1,48.7,29.96,East,87,0.0,0.0,88,0.00,,,0.00,Wunderground v.1.15,2013-05-08 07:58:00,
2013-05-08 03:00:00,52.1,48.7,29.96,East,88,0.0,0.0,88,0.00,,,0.00,Wunderground v.1.15,2013-05-08 08:00:00,
2013-05-08 03:01:00,52.0,48.6,29.96,East,88,0.0,0.0,88,0.00,,,0.00,Wunderground v.1.15,2013-05-08 08:01:00,
2013-05-08 03:02:00,52.0,48.6,29.96,East,87,0.0,0.0,88,0.00,,,0.00,Wunderground v.1.15,2013-05-08 08:02:00,
2013-05-08 03:04:00,52.0,48.6,29.96,East,87,0.0,0.0,88,0.00,,,0.00,Wunderground v.1.15,2013-05-08 08:04:00,
2013-05-08 03:06:00,52.0,48.6,29.96,East,88,0.0,0.0,88,0.00,,,0.00,Wunderground v.1.15,2013-05-08 08:06:00,
2013-05-08 03:07:00,51.9,48.5,29.96,East,87,0.0,0.0,88,0.00,,,0.00,Wunderground v.1.15,2013-05-08 08:07:00,
2013-05-08 03:10:00,51.9,48.5,29.96,East,88,0.0,0.0,88,0.00,,,0.00,Wunderground v.1.15,2013-05-08 08:10:00,
2013-05-08 03:11:00,51.9,48.5,29.96,East,87,0.0,0.0,88,0.00,,,0.00,Wunderground v.1.15,2013-05-08 08:11:00,
2013-05-08 03:14:00,52.0,48.6,29.96,East,88,0.0,0.0,88,0.00,,,0.00,Wunderground v.1.15,2013-05-08 08:14:00,
2013-05-08 03:16:00,52.0,48.6,29.96,East,88,0.0,0.0,88,0.00,,,0.00,Wunderground v.1.15,2013-05-08 08:16:00,
2013-05-08 03:20:00,51.9,48.5,29.96,East,88,0.0,0.0,88,0.00,,,0.00,Wunderground v.1.15,2013-05-08 08:20:00,
2013-05-08 03:21:00,51.8,48.4,29.96,East,88,0.0,0.0,88,0.00,,,0.00,Wunderground v.1.15,2013-05-08 08:21:00,
2013-05-08 03:25:00,51.7,48.3,29.96,East,88,0.0,0.0,88,0.00,,,0.00,Wunderground v.1.15,2013-05-08 08:25:00,
2013-05-08 03:27:00,51.6,48.2,29.96,East,88,0.0,0.0,88,0.00,,,0.00,Wunderground v.1.15,2013-05-08 08:27:00,
2013-05-08 03:32:00,51.3,48.2,29.97,East,87,0.0,0.0,89,0.00,,,0.00,Wunderground v.1.15,2013-05-08 08:32:00,
2013-05-08 03:33:00,51.3,48.2,29.96,East,88,0.0,0.0,89,0.00,,,0.00,Wunderground v.1.15,2013-05-08 08:33:00,
2013-05-08 03:34:00,51.3,48.5,29.96,East,88,0.0,0.0,90,0.00,,,0.00,Wunderground v.1.15,2013-05-08 08:34:00,
2013-05-08 03:37:00,51.2,48.4,29.96,East,87,0.0,0.0,90,0.00,,,0.00,Wunderground v.1.15,2013-05-08 08:37:00,
2013-05-08 03:38:00,51.2,48.4,29.97,East,87,0.0,0.0,90,0.00,,,0.00,Wunderground v.1.15,2013-05-08 08:38:00,
2013-05-08 03:39:00,51.1,48.3,29.96,East,87,0.0,0.0,90,0.00,,,0.00,Wunderground v.1.15,2013-05-08 08:39:00,
2013-05-08 03:40:00,51.1,48.3,29.97,East,87,0.0,0.0,90,0.00,,,0.00,Wunderground v.1.15,2013-05-08 08:40:00,
2013-05-08 03:42:00,51.0,48.2,29.97,East,87,0.0,0.0,90,0.00,,,0.00,Wunderground v.1.15,2013-05-08 08:42:00,
2013-05-08 03:44:00,50.8,48.0,29.97,East,87,0.0,0.0,90,0.00,,,0.00,Wunderground v.1.15,2013-05-08 08:44:00,
2013-05-08 03:45:00,50.8,48.0,29.97,East,88,0.0,0.0,90,0.00,,,0.00,Wunderground v.1.15,2013-05-08 08:45:00,
2013-05-08 03:47:00,50.9,48.4,29.97,East,87,0.0,0.0,91,0.00,,,0.00,Wunderground v.1.15,2013-05-08 08:47:00,
2013-05-08 03:48:00,50.9,48.4,29.96,East,88,0.0,0.0,91,0.00,,,0.00,Wunderground v.1.15,2013-05-08 08:48:00,
2013-05-08 03:49:00,51.0,48.5,29.96,East,87,0.0,0.0,91,0.00,,,0.00,Wunderground v.1.15,2013-05-08 08:49:00,
2013-05-08 03:50:00,51.0,48.8,29.96,East,87,0.0,0.0,92,0.00,,,0.00,Wunderground v.1.15,2013-05-08 08:50:00,
2013-05-08 03:53:00,50.9,48.7,29.96,East,87,0.0,0.0,92,0.00,,,0.00,Wunderground v.1.15,2013-05-08 08:53:00,
2013-05-08 03:55:00,50.8,48.6,29.96,East,88,0.0,0.0,92,0.00,,,0.00,Wunderground v.1.15,2013-05-08 08:55:00,
2013-05-08 03:56:00,50.8,48.6,29.96,East,87,0.0,0.0,92,0.00,,,0.00,Wunderground v.1.15,2013-05-08 08:56:00,
2013-05-08 04:00:00,50.7,48.5,29.96,East,88,0.0,0.0,92,0.00,,,0.00,Wunderground v.1.15,2013-05-08 09:00:00,
2013-05-08 04:02:00,50.6,48.4,29.97,East,87,0.0,0.0,92,0.00,,,0.00,Wunderground v.1.15,2013-05-08 09:02:00,
2013-05-08 04:03:00,50.6,48.4,29.96,East,87,0.0,0.0,92,0.00,,,0.00,Wunderground v.1.15,2013-05-08 09:03:00,
2013-05-08 04:04:00,50.6,48.4,29.97,East,88,0.0,0.0,92,0.00,,,0.00,Wunderground v.1.15,2013-05-08 09:04:00,
2013-05-08 04:08:00,50.4,48.2,29.97,East,88,0.0,0.0,92,0.00,,,0.00,Wunderground v.1.15,2013-05-08 09:08:00,
2013-05-08 04:09:00,50.3,48.1,29.97,East,88,0.0,0.0,92,0.00,,,0.00,Wunderground v.1.15,2013-05-08 09:09:00,
2013-05-08 04:10:00,50.3,48.1,29.97,East,87,0.0,0.0,92,0.00,,,0.00,Wunderground v.1.15,2013-05-08 09:10:00,
2013-05-08 04:11:00,50.2,48.0,29.97,East,87,0.0,0.0,92,0.00,,,0.00,Wunderground v.1.15,2013-05-08 09:11:00,
2013-05-08 04:13:00,50.1,48.2,29.97,East,88,0.0,0.0,93,0.00,,,0.00,Wunderground v.1.15,2013-05-08 09:13:00,
2013-05-08 04:16:00,50.0,48.1,29.97,East,87,0.0,0.0,93,0.00,,,0.00,Wunderground v.1.15,2013-05-08 09:16:00,
2013-05-08 04:18:00,50.0,48.1,29.97,East,87,0.0,0.0,93,0.00,,,0.00,Wunderground v.1.15,2013-05-08 09:18:00,
2013-05-08 04:22:00,49.8,47.9,29.97,East,87,0.0,0.0,93,0.00,,,0.00,Wunderground v.1.15,2013-05-08 09:22:00,
2013-05-08 04:24:00,49.7,47.8,29.97,East,88,0.0,0.0,93,0.00,,,0.00,Wunderground v.1.15,2013-05-08 09:24:00,
2013-05-08 04:26:00,49.5,47.6,29.97,East,87,0.0,0.0,93,0.00,,,0.00,Wunderground v.1.15,2013-05-08 09:26:00,
2013-05-08 04:27:00,49.5,47.6,29.97,East,87,0.0,0.0,93,0.00,,,0.00,Wunderground v.1.15,2013-05-08 09:27:00,
2013-05-08 04:32:00,49.3,47.6,29.97,East,87,0.0,0.0,94,0.00,,,0.00,Wunderground v.1.15,2013-05-08 09:32:00,
2013-05-08 04:34:00,49.4,47.7,29.97,East,87,0.0,0.0,94,0.00,,,0.00,Wunderground v.1.15,2013-05-08 09:34:00,
2013-05-08 04:35:00,49.4,47.7,29.97,East,87,0.0,0.0,94,0.00,,,0.00,Wunderground v.1.15,2013-05-08 09:35:00,
2013-05-08 04:37:00,49.4,47.7,29.97,East,88,0.0,0.0,94,0.00,,,0.00,Wunderground v.1.15,2013-05-08 09:37:00,
2013-05-08 04:39:00,49.4,47.7,29.97,East,87,0.0,0.0,94,0.00,,,0.00,Wunderground v.1.15,2013-05-08 09:39:00,
2013-05-08 04:40:00,49.4,47.7,29.97,East,87,0.0,0.0,94,0.00,,,0.00,Wunderground v.1.15,2013-05-08 09:40:00,
2013-05-08 04:41:00,49.4,47.7,29.97,East,87,0.0,0.0,94,0.00,,,0.00,Wunderground v.1.15,2013-05-08 09:41:00,
2013-05-08 04:42:00,49.3,47.6,29.97,East,87,0.0,0.0,94,0.00,,,0.00,Wunderground v.1.15,2013-05-08 09:42:00,
2013-05-08 04:46:00,49.3,47.9,29.97,East,88,0.0,0.0,95,0.00,,,0.00,Wunderground v.1.15,2013-05-08 09:46:00,
2013-05-08 04:47:00,49.2,47.8,29.97,East,87,0.0,0.0,95,0.00,,,0.00,Wunderground v.1.15,2013-05-08 09:47:00,
2013-05-08 04:48:00,49.3,47.9,29.97,East,87,0.0,0.0,95,0.00,,,0.00,Wunderground v.1.15,2013-05-08 09:48:00,
2013-05-08 04:49:00,49.3,47.9,29.97,East,88,0.0,0.0,95,0.00,,,0.00,Wunderground v.1.15,2013-05-08 09:49:00,
2013-05-08 04:51:00,49.3,47.9,29.97,East,87,0.0,0.0,95,0.00,,,0.00,Wunderground v.1.15,2013-05-08 09:51:00,
2013-05-08 04:52:00,49.3,47.9,29.97,East,87,0.0,0.0,95,0.00,,,0.00,Wunderground v.1.15,2013-05-08 09:52:00,
2013-05-08 04:56:00,49.4,48.0,29.97,East,87,0.0,0.0,95,0.00,,,0.00,Wunderground v.1.15,2013-05-08 09:56:00,
2013-05-08 04:57:00,49.4,48.0,29.97,East,87,0.0,0.0,95,0.00,,,0.00,Wunderground v.1.15,2013-05-08 09:57:00,
2013-05-08 04:58:00,49.4,48.0,29.97,East,87,0.0,0.0,95,0.00,,,0.00,Wunderground v.1.15,2013-05-08 09:58:00,
2013-05-08 05:02:00,49.4,48.0,29.97,East,87,0.0,0.0,95,0.00,,,0.00,Wunderground v.1.15,2013-05-08 10:02:00,
2013-05-08 05:03:00,49.4,48.0,29.97,East,87,0.0,0.0,95,0.00,,,0.00,Wunderground v.1.15,2013-05-08 10:03:00,
2013-05-08 05:04:00,49.3,47.9,29.97,East,88,0.0,0.0,95,0.00,,,0.00,Wunderground v.1.15,2013-05-08 10:04:00,
2013-05-08 05:05:00,49.4,48.0,29.97,East,87,0.0,0.0,95,0.00,,,0.00,Wunderground v.1.15,2013-05-08 10:05:00,
2013-05-08 05:08:00,49.4,48.0,29.97,East,87,0.0,0.0,95,0.00,,,0.00,Wunderground v.1.15,2013-05-08 10:08:00,
2013-05-08 05:10:00,49.5,48.1,29.97,East,88,0.0,0.0,95,0.00,,,0.00,Wunderground v.1.15,2013-05-08 10:10:00,
2013-05-08 05:12:00,49.6,48.2,29.97,East,87,0.0,0.0,95,0.00,,,0.00,Wunderground v.1.15,2013-05-08 10:12:00,
2013-05-08 05:13:00,49.6,48.2,29.97,East,88,0.0,0.0,95,0.00,,,0.00,Wunderground v.1.15,2013-05-08 10:13:00,
2013-05-08 05:15:00,49.6,48.2,29.98,East,87,0.0,0.0,95,0.00,,,0.00,Wunderground v.1.15,2013-05-08 10:15:00,
2013-05-08 05:18:00,49.6,48.2,29.98,East,87,0.0,0.0,95,0.00,,,0.00,Wunderground v.1.15,2013-05-08 10:18:00,
2013-05-08 05:20:00,49.5,48.1,29.98,East,87,0.0,0.0,95,0.00,,,0.00,Wunderground v.1.15,2013-05-08 10:20:00,
2013-05-08 05:21:00,49.5,48.1,29.98,East,88,0.0,0.0,95,0.00,,,0.00,Wunderground v.1.15,2013-05-08 10:21:00,
2013-05-08 05:24:00,49.5,48.1,29.98,East,87,0.0,0.0,95,0.00,,,0.00,Wunderground v.1.15,2013-05-08 10:24:00,
2013-05-08 05:26:00,49.6,48.2,29.98,East,88,0.0,0.0,95,0.00,,,0.00,Wunderground v.1.15,2013-05-08 10:26:00,
2013-05-08 05:29:00,49.5,48.1,29.98,East,87,0.0,0.0,95,0.00,,,0.00,Wunderground v.1.15,2013-05-08 10:29:00,
2013-05-08 05:30:00,49.5,48.1,29.98,East,87,0.0,0.0,95,0.00,,,0.00,Wunderground v.1.15,2013-05-08 10:30:00,
2013-05-08 05:33:00,49.3,47.9,29.98,East,88,0.0,0.0,95,0.00,,,0.00,Wunderground v.1.15,2013-05-08 10:33:00,
2013-05-08 05:34:00,49.3,47.9,29.98,East,87,0.0,0.0,95,0.00,,,0.00,Wunderground v.1.15,2013-05-08 10:34:00,
2013-05-08 05:35:00,49.3,47.9,29.98,East,88,0.0,0.0,95,0.00,,,0.00,Wunderground v.1.15,2013-05-08 10:35:00,
2013-05-08 05:36:00,49.3,47.9,29.98,East,88,0.0,0.0,95,0.00,,,0.00,Wunderground v.1.15,2013-05-08 10:36:00,
2013-05-08 05:39:00,49.3,47.9,29.98,East,87,0.0,0.0,95,0.00,,,0.00,Wunderground v.1.15,2013-05-08 10:39:00,
2013-05-08 05:42:00,49.2,47.8,29.98,East,87,0.0,0.0,95,0.00,,,0.00,Wunderground v.1.15,2013-05-08 10:42:00,
2013-05-08 05:43:00,49.2,47.8,29.98,East,87,0.0,0.0,95,0.00,,,0.00,Wunderground v.1.15,2013-05-08 10:43:00,
2013-05-08 05:44:00,49.2,47.8,29.98,East,87,0.0,0.0,95,0.00,,,0.00,Wunderground v.1.15,2013-05-08 10:44:00,
2013-05-08 05:46:00,49.2,47.8,29.98,East,87,0.0,0.0,95,0.00,,,0.00,Wunderground v.1.15,2013-05-08 10:46:00,
2013-05-08 05:48:00,49.1,47.7,29.98,East,87,0.0,0.0,95,0.00,,,0.00,Wunderground v.1.15,2013-05-08 10:48:00,
2013-05-08 05:49:00,49.2,47.8,29.98,East,87,0.0,0.0,95,0.00,,,0.00,Wunderground v.1.15,2013-05-08 10:49:00,
2013-05-08 05:52:00,49.2,47.8,29.98,East,87,0.0,0.0,95,0.00,,,0.00,Wunderground v.1.15,2013-05-08 10:52:00,
2013-05-08 05:56:00,49.1,47.7,29.99,East,87,0.0,0.0,95,0.00,,,0.00,Wunderground v.1.15,2013-05-08 10:56:00,
2013-05-08 05:57:00,49.0,47.6,29.99,East,87,0.0,0.0,95,0.00,,,0.00,Wunderground v.1.15,2013-05-08 10:57:00,
2013-05-08 05:59:00,48.9,47.5,29.98,East,88,0.0,0.0,95,0.00,,,0.00,Wunderground v.1.15,2013-05-08 10:59:00,
2013-05-08 06:00:00,48.9,47.5,29.98,East,87,0.0,0.0,95,0.00,,,0.00,Wunderground v.1.15,2013-05-08 11:00:00,
2013-05-08 06:03:00,48.9,47.5,29.98,East,88,0.0,0.0,95,0.00,,,0.00,Wunderground v.1.15,2013-05-08 11:03:00,
2013-05-08 06:05:00,48.9,47.5,29.98,East,87,0.0,0.0,95,0.00,,,0.00,Wunderground v.1.15,2013-05-08 11:05:00,
2013-05-08 06:07:00,48.9,47.5,29.98,East,87,0.0,0.0,95,0.00,,,0.00,Wunderground v.1.15,2013-05-08 11:07:00,
2013-05-08 06:08:00,48.9,47.8,29.98,East,87,0.0,0.0,96,0.00,,,0.00,Wunderground v.1.15,2013-05-08 11:08:00,
2013-05-08 06:10:00,48.9,47.8,29.99,East,87,0.0,0.0,96,0.00,,,0.00,Wunderground v.1.15,2013-05-08 11:10:00,
2013-05-08 06:11:00,48.9,47.8,29.99,East,87,0.0,0.0,96,0.00,,,0.00,Wunderground v.1.15,2013-05-08 11:11:00,
2013-05-08 06:12:00,48.9,47.8,29.99,East,87,0.0,0.0,96,0.00,,,0.00,Wunderground v.1.15,2013-05-08 11:12:00,
2013-05-08 06:17:00,48.9,47.8,29.99,East,87,0.0,0.0,96,0.00,,,0.00,Wunderground v.1.15,2013-05-08 11:17:00,
2013-05-08 06:20:00,48.9,47.8,29.99,East,88,0.0,0.0,96,0.00,,,0.00,Wunderground v.1.15,2013-05-08 11:20:00,
2013-05-08 06:21:00,48.9,47.8,29.99,East,87,0.0,0.0,96,0.00,,,0.00,Wunderground v.1.15,2013-05-08 11:21:00,
2013-05-08 06:22:00,48.9,47.8,29.99,East,87,0.0,0.0,96,0.00,,,0.00,Wunderground v.1.15,2013-05-08 11:22:00,
2013-05-08 06:23:00,48.9,47.8,29.99,East,87,0.0,0.0,96,0.00,,,0.00,Wunderground v.1.15,2013-05-08 11:23:00,
2013-05-08 06:24:00,48.9,47.8,29.99,East,87,0.0,0.0,96,0.00,,,0.00,Wunderground v.1.15,2013-05-08 11:24:00,
2013-05-08 06:28:00,49.0,47.9,29.99,East,88,0.0,0.0,96,0.00,,,0.00,Wunderground v.1.15,2013-05-08 11:28:00,
2013-05-08 06:29:00,49.0,47.9,29.99,East,88,0.0,0.0,96,0.00,,,0.00,Wunderground v.1.15,2013-05-08 11:29:00,
2013-05-08 06:32:00,49.2,48.1,29.99,East,87,0.0,0.0,96,0.00,,,0.00,Wunderground v.1.15,2013-05-08 11:32:00,
2013-05-08 06:34:00,49.3,48.2,29.99,East,89,0.0,0.0,96,0.00,,,0.00,Wunderground v.1.15,2013-05-08 11:34:00,
2013-05-08 06:35:00,49.5,48.4,29.99,East,88,0.0,0.0,96,0.00,,,0.00,Wunderground v.1.15,2013-05-08 11:35:00,
2013-05-08 06:36:00,49.5,48.4,29.99,East,88,0.0,0.0,96,0.00,,,0.00,Wunderground v.1.15,2013-05-08 11:36:00,
2013-05-08 06:37:00,49.6,48.5,29.99,East,89,0.0,0.0,96,0.00,,,0.00,Wunderground v.1.15,2013-05-08 11:37:00,
2013-05-08 06:39:00,49.9,48.8,29.99,East,88,0.0,0.0,96,0.00,,,0.00,Wunderground v.1.15,2013-05-08 11:39:00,
2013-05-08 06:41:00,50.2,49.1,29.99,East,87,0.0,0.0,96,0.00,,,0.00,Wunderground v.1.15,2013-05-08 11:41:00,
2013-05-08 06:45:00,51.1,50.0,29.99,East,87,0.0,0.0,96,0.00,,,0.00,Wunderground v.1.15,2013-05-08 11:45:00,
2013-05-08 06:46:00,51.4,50.3,29.99,East,89,0.0,0.0,96,0.00,,,0.00,Wunderground v.1.15,2013-05-08 11:46:00,
2013-05-08 06:48:00,51.9,50.8,30.00,East,87,0.0,0.0,96,0.00,,,0.00,Wunderground v.1.15,2013-05-08 11:48:00,
2013-05-08 06:50:00,52.6,51.5,30.00,East,87,0.0,0.0,96,0.00,,,0.00,Wunderground v.1.15,2013-05-08 11:50:00,
2013-05-08 06:51:00,52.8,51.7,30.00,East,89,0.0,0.0,96,0.00,,,0.00,Wunderground v.1.15,2013-05-08 11:51:00,
2013-05-08 06:56:00,53.9,52.2,30.00,East,88,0.0,0.0,94,0.00,,,0.00,Wunderground v.1.15,2013-05-08 11:56:00,
2013-05-08 06:58:00,54.5,52.8,30.00,East,88,0.0,0.0,94,0.00,,,0.00,Wunderground v.1.15,2013-05-08 11:58:00,
2013-05-08 06:59:00,54.6,52.6,30.00,East,87,0.0,0.0,93,0.00,,,0.00,Wunderground v.1.15,2013-05-08 11:59:00,
2013-05-08 07:01:00,55.1,53.1,30.00,East,87,0.0,0.0,93,0.00,,,0.00,Wunderground v.1.15,2013-05-08 12:01:00,
2013-05-08 07:02:00,55.4,53.1,30.00,East,87,0.0,0.0,92,0.00,,,0.00,Wunderground v.1.15,2013-05-08 12:02:00,
2013-05-08 07:03:00,55.6,53.3,30.00,East,87,0.0,0.0,92,0.00,,,0.00,Wunderground v.1.15,2013-05-08 12:03:00,
2013-05-08 07:06:00,56.4,53.5,30.00,East,89,0.0,0.0,90,0.00,,,0.00,Wunderground v.1.15,2013-05-08 12:06:00,
2013-05-08 07:07:00,56.7,53.8,30.00,East,88,0.0,0.0,90,0.00,,,0.00,Wunderground v.1.15,2013-05-08 12:07:00,
2013-05-08 07:09:00,57.1,53.6,30.00,East,88,0.0,0.0,88,0.00,,,0.00,Wunderground v.1.15,2013-05-08 12:09:00,
2013-05-08 07:11:00,57.6,53.8,30.00,East,88,0.0,0.0,87,0.00,,,0.00,Wunderground v.1.15,2013-05-08 12:11:00,
2013-05-08 07:15:00,58.3,53.5,30.00,East,94,0.0,0.0,84,0.00,,,0.00,Wunderground v.1.15,2013-05-08 12:15:00,
2013-05-08 07:16:00,58.5,53.0,30.00,East,91,0.0,0.0,82,0.00,,,0.00,Wunderground v.1.15,2013-05-08 12:16:00,
2013-05-08 07:20:00,59.1,53.6,30.00,East,94,0.0,0.0,82,0.00,,,0.00,Wunderground v.1.15,2013-05-08 12:20:00,
2013-05-08 07:21:00,59.6,54.8,30.00,East,94,0.0,0.0,84,0.00,,,0.00,Wunderground v.1.15,2013-05-08 12:21:00,
2013-05-08 07:22:00,59.9,54.7,30.00,East,94,0.0,0.0,83,0.00,,,0.00,Wunderground v.1.15,2013-05-08 12:22:00,
2013-05-08 07:24:00,60.2,54.3,30.00,East,94,0.0,0.0,81,0.00,,,0.00,Wunderground v.1.15,2013-05-08 12:24:00,
2013-05-08 07:26:00,60.8,53.5,30.00,East,92,0.0,0.0,77,0.00,,,0.00,Wunderground v.1.15,2013-05-08 12:26:00,
2013-05-08 07:28:00,60.9,53.6,30.00,ENE,71,0.0,0.0,77,0.00,,,0.00,Wunderground v.1.15,2013-05-08 12:28:00,
2013-05-08 07:30:00,61.0,52.7,30.00,ENE,73,0.0,0.0,74,0.00,,,0.00,Wunderground v.1.15,2013-05-08 12:30:00,
2013-05-08 07:31:00,61.0,53.4,30.00,East,79,0.0,0.0,76,0.00,,,0.00,Wunderground v.1.15,2013-05-08 12:31:00,
2013-05-08 07:33:00,61.1,53.5,30.00,ENE,75,0.0,0.0,76,0.00,,,0.00,Wunderground v.1.15,2013-05-08 12:33:00,
2013-05-08 07:35:00,61.2,53.2,30.00,East,93,0.0,1.0,75,0.00,,,0.00,Wunderground v.1.15,2013-05-08 12:35:00,
2013-05-08 07:36:00,61.2,52.8,30.00,ENE,63,0.0,1.0,74,0.00,,,0.00,Wunderground v.1.15,2013-05-08 12:36:00,
2013-05-08 07:38:00,61.2,52.5,30.00,NE,56,0.0,1.0,73,0.00,,,0.00,Wunderground v.1.15,2013-05-08 12:38:00,
2013-05-08 07:40:00,61.3,52.6,30.01,ENE,68,0.0,0.0,73,0.00,,,0.00,Wunderground v.1.15,2013-05-08 12:40:00,
2013-05-08 07:41:00,61.4,53.0,30.01,ENE,67,0.0,0.0,74,0.00,,,0.00,Wunderground v.1.15,2013-05-08 12:41:00,
2013-05-08 07:42:00,61.5,53.1,30.01,ENE,78,0.0,0.0,74,0.00,,,0.00,Wunderground v.1.15,2013-05-08 12:42:00,
2013-05-08 07:43:00,61.6,52.9,30.01,East,81,0.0,0.0,73,0.00,,,0.00,Wunderground v.1.15,2013-05-08 12:43:00,
2013-05-08 07:45:00,61.7,53.0,30.01,ENE,63,0.0,1.0,73,0.00,,,0.00,Wunderground v.1.15,2013-05-08 12:45:00,
2013-05-08 07:47:00,61.8,53.1,30.01,East,79,0.0,1.0,73,0.00,,,0.00,Wunderground v.1.15,2013-05-08 12:47:00,
2013-05-08 07:48:00,62.0,53.6,30.01,East,95,0.0,1.0,74,0.00,,,0.00,Wunderground v.1.15,2013-05-08 12:48:00,
2013-05-08 07:53:00,62.7,53.9,30.01,ENE,58,0.0,0.0,73,0.00,,,0.00,Wunderground v.1.15,2013-05-08 12:53:00,
2013-05-08 07:54:00,62.8,54.0,30.01,ENE,58,0.0,0.0,73,0.00,,,0.00,Wunderground v.1.15,2013-05-08 12:54:00,
2013-05-08 07:56:00,63.2,54.0,30.00,ESE,117,0.0,0.0,72,0.00,,,0.00,Wunderground v.1.15,2013-05-08 12:56:00,
2013-05-08 07:58:00,63.3,54.5,30.00,ESE,122,0.0,0.0,73,0.00,,,0.00,Wunderground v.1.15,2013-05-08 12:58:00,
2013-05-08 08:00:00,63.5,53.9,30.01,ESE,107,0.0,0.0,71,0.00,,,0.00,Wunderground v.1.15,2013-05-08 13:00:00,
2013-05-08 08:01:00,63.7,54.9,30.01,ESE,113,0.0,0.0,73,0.00,,,0.00,Wunderground v.1.15,2013-05-08 13:01:00,
2013-05-08 08:04:00,63.9,53.9,30.01,SE,136,0.0,0.0,70,0.00,,,0.00,Wunderground v.1.15,2013-05-08 13:04:00,
2013-05-08 08:05:00,64.0,54.4,30.01,ESE,113,0.0,1.0,71,0.00,,,0.00,Wunderground v.1.15,2013-05-08 13:05:00,
2013-05-08 08:07:00,64.2,55.0,30.01,SE,124,0.0,1.0,72,0.00,,,0.00,Wunderground v.1.15,2013-05-08 13:07:00,
2013-05-08 08:09:00,64.3,55.1,30.01,ESE,113,0.0,1.0,72,0.00,,,0.00,Wunderground v.1.15,2013-05-08 13:09:00,
2013-05-08 08:11:00,64.4,54.0,30.01,ESE,120,0.0,2.0,69,0.00,,,0.00,Wunderground v.1.15,2013-05-08 13:11:00,
2013-05-08 08:13:00,64.4,53.6,30.01,SE,124,0.0,2.0,68,0.00,,,0.00,Wunderground v.1.15,2013-05-08 13:13:00,
2013-05-08 08:14:00,64.5,53.7,30.01,ESE,107,1.0,2.0,68,0.00,,,0.00,Wunderground v.1.15,2013-05-08 13:14:00,
2013-05-08 08:15:00,64.6,53.8,30.01,ESE,123,1.0,2.0,68,0.00,,,0.00,Wunderground v.1.15,2013-05-08 13:15:00,
2013-05-08 08:17:00,64.7,53.9,30.01,SE,124,1.0,2.0,68,0.00,,,0.00,Wunderground v.1.15,2013-05-08 13:17:00,
2013-05-08 08:18:00,64.8,54.0,30.01,ESE,122,1.0,2.0,68,0.00,,,0.00,Wunderground v.1.15,2013-05-08 13:18:00,
2013-05-08 08:19:00,64.9,54.1,30.01,ESE,110,1.0,2.0,68,0.00,,,0.00,Wunderground v.1.15,2013-05-08 13:19:00,
2013-05-08 08:22:00,65.1,53.9,30.00,ESE,108,1.0,1.0,67,0.00,,,0.00,Wunderground v.1.15,2013-05-08 13:22:00,
2013-05-08 08:23:00,65.1,54.3,30.01,ESE,104,1.0,2.0,68,0.00,,,0.00,Wunderground v.1.15,2013-05-08 13:23:00,
2013-05-08 08:28:00,65.4,54.6,30.01,ESE,114,1.0,2.0,68,0.00,,,0.00,Wunderground v.1.15,2013-05-08 13:28:00,
2013-05-08 08:30:00,65.5,54.7,30.01,ESE,110,1.0,1.0,68,0.00,,,0.00,Wunderground v.1.15,2013-05-08 13:30:00,
2013-05-08 08:33:00,65.8,54.5,30.01,ESE,117,1.0,3.0,67,0.00,,,0.00,Wunderground v.1.15,2013-05-08 13:33:00,
2013-05-08 08:35:00,65.8,54.5,30.01,SE,137,1.0,3.0,67,0.00,,,0.00,Wunderground v.1.15,2013-05-08 13:35:00,
2013-05-08 08:36:00,65.9,54.6,30.01,SE,136,1.0,3.0,67,0.00,,,0.00,Wunderground v.1.15,2013-05-08 13:36:00,
2013-05-08 08:37:00,65.9,54.2,30.01,ESE,113,1.0,3.0,66,0.00,,,0.00,Wunderground v.1.15,2013-05-08 13:37:00,
2013-05-08 08:40:00,66.3,55.4,30.00,ESE,120,0.0,1.0,68,0.00,,,0.00,Wunderground v.1.15,2013-05-08 13:40:00,
2013-05-08 08:41:00,66.4,54.7,30.01,SE,124,0.0,2.0,66,0.00,,,0.00,Wunderground v.1.15,2013-05-08 13:41:00,
2013-05-08 08:42:00,66.5,55.2,30.01,SE,140,1.0,2.0,67,0.00,,,0.00,Wunderground v.1.15,2013-05-08 13:42:00,
2013-05-08 08:43:00,66.5,54.4,30.01,SE,132,1.0,2.0,65,0.00,,,0.00,Wunderground v.1.15,2013-05-08 13:43:00,
2013-05-08 08:44:00,66.6,54.5,30.01,SSE,154,1.0,2.0,65,0.00,,,0.00,Wunderground v.1.15,2013-05-08 13:44:00,
2013-05-08 08:45:00,66.7,55.0,30.01,ESE,115,1.0,2.0,66,0.00,,,0.00,Wunderground v.1.15,2013-05-08 13:45:00,
2013-05-08 08:46:00,66.8,54.7,30.01,ESE,112,1.0,2.0,65,0.00,,,0.00,Wunderground v.1.15,2013-05-08 13:46:00,
2013-05-08 08:48:00,66.9,55.2,30.01,SE,127,1.0,2.0,66,0.00,,,0.00,Wunderground v.1.15,2013-05-08 13:48:00,
2013-05-08 08:52:00,67.2,55.9,30.01,ESE,113,1.0,2.0,67,0.00,,,0.00,Wunderground v.1.15,2013-05-08 13:52:00,
2013-05-08 08:53:00,67.3,54.7,30.00,SE,132,1.0,2.0,64,0.00,,,0.00,Wunderground v.1.15,2013-05-08 13:53:00,
2013-05-08 08:54:00,67.3,54.7,30.00,ESE,122,1.0,2.0,64,0.00,,,0.00,Wunderground v.1.15,2013-05-08 13:54:00,
2013-05-08 08:55:00,67.4,54.4,30.01,ESE,120,1.0,2.0,63,0.00,,,0.00,Wunderground v.1.15,2013-05-08 13:55:00,
2013-05-08 08:58:00,67.7,55.1,30.01,ESE,120,1.0,2.0,64,0.00,,,0.00,Wunderground v.1.15,2013-05-08 13:58:00,
2013-05-08 08:59:00,67.8,54.7,30.01,ESE,120,1.0,2.0,63,0.00,,,0.00,Wunderground v.1.15,2013-05-08 13:59:00,
2013-05-08 09:01:00,68.1,55.0,30.01,ESE,121,1.0,1.0,63,0.00,,,0.00,Wunderground v.1.15,2013-05-08 14:01:00,
2013-05-08 09:05:00,68.5,54.1,30.01,ESE,108,0.0,1.0,60,0.00,,,0.00,Wunderground v.1.15,2013-05-08 14:05:00,
2013-05-08 09:06:00,68.7,54.7,30.01,ESE,107,0.0,1.0,61,0.00,,,0.00,Wunderground v.1.15,2013-05-08 14:06:00,
2013-05-08 09:10:00,69.7,55.2,30.01,SW,219,0.0,0.0,60,0.00,,,0.00,Wunderground v.1.15,2013-05-08 14:10:00,
2013-05-08 09:11:00,69.8,54.8,30.01,SW,214,0.0,0.0,59,0.00,,,0.00,Wunderground v.1.15,2013-05-08 14:11:00,
2013-05-08 09:12:00,69.8,55.3,30.01,SSW,203,0.0,0.0,60,0.00,,,0.00,Wunderground v.1.15,2013-05-08 14:12:00,
2013-05-08 09:13:00,69.9,54.9,30.01,South,179,0.0,0.0,59,0.00,,,0.00,Wunderground v.1.15,2013-05-08 14:13:00,
2013-05-08 09:16:00,70.2,54.7,30.00,SE,146,0.0,0.0,58,0.00,,,0.00,Wunderground v.1.15,2013-05-08 14:16:00,
2013-05-08 09:18:00,70.4,54.9,30.01,SSE,161,0.0,0.0,58,0.00,,,0.00,Wunderground v.1.15,2013-05-08 14:18:00,
2013-05-08 09:20:00,70.7,55.2,30.00,SSE,165,0.0,0.0,58,0.00,,,0.00,Wunderground v.1.15,2013-05-08 14:20:00,
2013-05-08 09:21:00,70.9,55.4,30.00,SSE,157,0.0,0.0,58,0.00,,,0.00,Wunderground v.1.15,2013-05-08 14:21:00,
2013-05-08 09:22:00,71.0,54.5,30.01,SE,131,0.0,0.0,56,0.00,,,0.00,Wunderground v.1.15,2013-05-08 14:22:00,
2013-05-08 09:23:00,71.1,54.6,30.00,SSE,153,0.0,0.0,56,0.00,,,0.00,Wunderground v.1.15,2013-05-08 14:23:00,
2013-05-08 09:24:00,71.3,54.8,30.01,SSE,164,0.0,0.0,56,0.00,,,0.00,Wunderground v.1.15,2013-05-08 14:24:00,
2013-05-08 09:28:00,71.9,54.3,30.01,ESE,119,0.0,0.0,54,0.00,,,0.00,Wunderground v.1.15,2013-05-08 14:28:00,
2013-05-08 09:29:00,71.9,53.8,30.01,ESE,110,0.0,0.0,53,0.00,,,0.00,Wunderground v.1.15,2013-05-08 14:29:00,
2013-05-08 09:32:00,72.3,54.2,30.01,SE,127,0.0,0.0,53,0.00,,,0.00,Wunderground v.1.15,2013-05-08 14:32:00,
2013-05-08 09:34:00,72.4,54.8,30.00,ESE,117,0.0,0.0,54,0.00,,,0.00,Wunderground v.1.15,2013-05-08 14:34:00,
2013-05-08 09:35:00,72.5,55.9,30.00,SE,131,0.0,0.0,56,0.00,,,0.00,Wunderground v.1.15,2013-05-08 14:35:00,
2013-05-08 09:37:00,72.6,54.5,30.01,SE,141,0.0,0.0,53,0.00,,,0.00,Wunderground v.1.15,2013-05-08 14:37:00,
2013-05-08 09:39:00,72.7,56.1,30.01,SW,234,0.0,0.0,56,0.00,,,0.00,Wunderground v.1.15,2013-05-08 14:39:00,
2013-05-08 09:41:00,72.6,56.0,30.00,SW,232,0.0,1.0,56,0.00,,,0.00,Wunderground v.1.15,2013-05-08 14:41:00,
2013-05-08 09:43:00,72.4,55.8,30.00,South,174,0.0,1.0,56,0.00,,,0.00,Wunderground v.1.15,2013-05-08 14:43:00,
2013-05-08 09:44:00,72.4,55.8,30.00,SSE,160,0.0,1.0,56,0.00,,,0.00,Wunderground v.1.15,2013-05-08 14:44:00,
2013-05-08 09:45:00,72.4,55.3,30.00,SSE,160,0.0,1.0,55,0.00,,,0.00,Wunderground v.1.15,2013-05-08 14:45:00,
2013-05-08 09:46:00,72.5,55.9,30.00,SW,226,0.0,1.0,56,0.00,,,0.00,Wunderground v.1.15,2013-05-08 14:46:00,
2013-05-08 09:48:00,72.7,56.1,30.00,SSW,200,0.0,1.0,56,0.00,,,0.00,Wunderground v.1.15,2013-05-08 14:48:00,
2013-05-08 09:49:00,72.8,56.7,30.00,SE,127,0.0,1.0,57,0.00,,,0.00,Wunderground v.1.15,2013-05-08 14:49:00,
2013-05-08 09:51:00,73.0,57.8,30.00,SSW,212,0.0,0.0,59,0.00,,,0.00,Wunderground v.1.15,2013-05-08 14:51:00,
2013-05-08 09:54:00,73.5,57.3,30.00,SSW,204,0.0,0.0,57,0.00,,,0.00,Wunderground v.1.15,2013-05-08 14:54:00,
2013-05-08 09:55:00,73.7,57.5,30.00,SW,217,0.0,0.0,57,0.00,,,0.00,Wunderground v.1.15,2013-05-08 14:55:00,
2013-05-08 09:57:00,73.8,56.6,30.01,South,184,0.0,1.0,55,0.00,,,0.00,Wunderground v.1.15,2013-05-08 14:57:00,
2013-05-08 09:59:00,73.8,56.1,30.01,SW,228,0.0,1.0,54,0.00,,,0.00,Wunderground v.1.15,2013-05-08 14:59:00,
2013-05-08 10:00:00,73.9,56.2,30.01,SSW,200,0.0,0.0,54,0.00,,,0.00,Wunderground v.1.15,2013-05-08 15:00:00,
2013-05-08 10:03:00,74.1,55.9,30.01,SSW,200,0.0,0.0,53,0.00,,,0.00,Wunderground v.1.15,2013-05-08 15:03:00,
2013-05-08 10:04:00,74.3,56.6,30.01,WSW,250,0.0,0.0,54,0.00,,,0.00,Wunderground v.1.15,2013-05-08 15:04:00,
2013-05-08 10:07:00,74.2,54.9,30.01,SW,233,0.0,2.0,51,0.00,,,0.00,Wunderground v.1.15,2013-05-08 15:07:00,
2013-05-08 10:08:00,74.2,53.8,30.01,SW,217,0.0,2.0,49,0.00,,,0.00,Wunderground v.1.15,2013-05-08 15:08:00,
2013-05-08 10:10:00,74.2,54.9,30.01,WSW,240,0.0,0.0,51,0.00,,,0.00,Wunderground v.1.15,2013-05-08 15:10:00,
2013-05-08 10:13:00,74.3,53.9,30.01,West,269,0.0,1.0,49,0.00,,,0.00,Wunderground v.1.15,2013-05-08 15:13:00,
2013-05-08 10:15:00,74.4,54.5,30.01,West,269,0.0,1.0,50,0.00,,,0.00,Wunderground v.1.15,2013-05-08 15:15:00,
2013-05-08 10:16:00,74.6,54.7,30.01,West,269,0.0,1.0,50,0.00,,,0.00,Wunderground v.1.15,2013-05-08 15:16:00,
2013-05-08 10:18:00,75.1,55.2,30.01,SSE,156,0.0,1.0,50,0.00,,,0.00,Wunderground v.1.15,2013-05-08 15:18:00,
2013-05-08 10:22:00,75.2,54.2,30.01,SW,231,1.0,2.0,48,0.00,,,0.00,Wunderground v.1.15,2013-05-08 15:22:00,
2013-05-08 10:23:00,75.1,52.9,30.01,WSW,238,1.0,2.0,46,0.00,,,0.00,Wunderground v.1.15,2013-05-08 15:23:00,
2013-05-08 10:24:00,75.0,52.8,30.01,SSW,210,1.0,2.0,46,0.00,,,0.00,Wunderground v.1.15,2013-05-08 15:24:00,
2013-05-08 10:27:00,75.1,52.9,30.01,South,176,1.0,2.0,46,0.00,,,0.00,Wunderground v.1.15,2013-05-08 15:27:00,
2013-05-08 10:28:00,75.3,54.8,30.01,South,174,1.0,2.0,49,0.00,,,0.00,Wunderground v.1.15,2013-05-08 15:28:00,
2013-05-08 10:29:00,75.4,53.8,30.01,SE,127,1.0,2.0,47,0.00,,,0.00,Wunderground v.1.15,2013-05-08 15:29:00,
2013-05-08 10:31:00,75.7,53.4,30.01,South,187,1.0,1.0,46,0.00,,,0.00,Wunderground v.1.15,2013-05-08 15:31:00,
2013-05-08 10:33:00,75.9,54.8,30.01,South,174,1.0,2.0,48,0.00,,,0.00,Wunderground v.1.15,2013-05-08 15:33:00,
2013-05-08 10:34:00,76.0,54.9,30.01,South,180,1.0,3.0,48,0.00,,,0.00,Wunderground v.1.15,2013-05-08 15:34:00,
2013-05-08 10:37:00,76.2,54.5,30.01,SSW,193,0.0,3.0,47,0.00,,,0.00,Wunderground v.1.15,2013-05-08 15:37:00,
2013-05-08 10:39:00,76.4,54.1,30.01,West,274,1.0,3.0,46,0.00,,,0.00,Wunderground v.1.15,2013-05-08 15:39:00,
2013-05-08 10:42:00,76.4,54.7,30.01,WSW,240,1.0,2.0,47,0.00,,,0.00,Wunderground v.1.15,2013-05-08 15:42:00,
2013-05-08 10:43:00,76.3,54.6,30.01,SW,229,1.0,2.0,47,0.00,,,0.00,Wunderground v.1.15,2013-05-08 15:43:00,
2013-05-08 10:44:00,76.2,53.9,30.01,SW,217,1.0,2.0,46,0.00,,,0.00,Wunderground v.1.15,2013-05-08 15:44:00,
2013-05-08 10:45:00,76.2,53.3,30.01,SSW,204,1.0,2.0,45,0.00,,,0.00,Wunderground v.1.15,2013-05-08 15:45:00,
2013-05-08 10:47:00,76.2,53.3,30.01,SE,141,1.0,2.0,45,0.00,,,0.00,Wunderground v.1.15,2013-05-08 15:47:00,
2013-05-08 10:49:00,76.4,55.3,30.01,WSW,243,1.0,2.0,48,0.00,,,0.00,Wunderground v.1.15,2013-05-08 15:49:00,
2013-05-08 10:51:00,76.6,54.9,30.01,WSW,253,1.0,2.0,47,0.00,,,0.00,Wunderground v.1.15,2013-05-08 15:51:00,
2013-05-08 10:55:00,76.4,52.2,30.01,SW,221,1.0,3.0,43,0.00,,,0.00,Wunderground v.1.15,2013-05-08 15:55:00,
2013-05-08 10:56:00,76.4,52.9,30.01,SSW,211,1.0,3.0,44,0.00,,,0.00,Wunderground v.1.15,2013-05-08 15:56:00,
2013-05-08 10:59:00,76.6,53.1,30.01,WNW,302,1.0,3.0,44,0.00,,,0.00,Wunderground v.1.15,2013-05-08 15:59:00,
2013-05-08 11:01:00,76.8,53.2,30.00,East,96,1.0,1.0,44,0.00,,,0.00,Wunderground v.1.15,2013-05-08 16:01:00,
2013-05-08 11:05:00,77.2,53.6,30.00,East,90,0.0,1.0,44,0.00,,,0.00,Wunderground v.1.15,2013-05-08 16:05:00,
2013-05-08 11:07:00,77.5,53.9,30.00,ENE,72,0.0,1.0,44,0.00,,,0.00,Wunderground v.1.15,2013-05-08 16:07:00,
2013-05-08 11:08:00,77.6,54.6,30.00,ENE,75,0.0,1.0,45,0.00,,,0.00,Wunderground v.1.15,2013-05-08 16:08:00,
2013-05-08 11:09:00,77.7,53.4,30.00,ESE,106,0.0,1.0,43,0.00,,,0.00,Wunderground v.1.15,2013-05-08 16:09:00,
2013-05-08 11:13:00,77.7,52.8,30.00,SSE,166,0.0,1.0,42,0.00,,,0.00,Wunderground v.1.15,2013-05-08 16:13:00,
2013-05-08 11:14:00,77.8,52.9,30.00,ESE,115,0.0,2.0,42,0.00,,,0.00,Wunderground v.1.15,2013-05-08 16:14:00,
2013-05-08 11:20:00,77.9,50.9,30.00,WSW,257,1.0,1.0,39,0.00,,,0.00,Wunderground v.1.15,2013-05-08 16:20:00,
2013-05-08 11:21:00,77.9,50.2,30.00,West,264,1.0,1.0,38,0.00,,,0.00,Wunderground v.1.15,2013-05-08 16:21:00,
2013-05-08 11:23:00,78.1,51.8,30.00,SSW,200,1.0,1.0,40,0.00,,,0.00,Wunderground v.1.15,2013-05-08 16:23:00,
2013-05-08 11:24:00,78.1,51.1,30.00,South,169,1.0,1.0,39,0.00,,,0.00,Wunderground v.1.15,2013-05-08 16:24:00,
2013-05-08 11:26:00,78.5,51.5,30.00,SW,219,1.0,1.0,39,0.00,,,0.00,Wunderground v.1.15,2013-05-08 16:26:00,
2013-05-08 11:29:00,78.8,52.4,30.00,WSW,243,1.0,1.0,40,0.00,,,0.00,Wunderground v.1.15,2013-05-08 16:29:00,
2013-05-08 11:30:00,78.8,52.4,30.00,WNW,300,1.0,2.0,40,0.00,,,0.00,Wunderground v.1.15,2013-05-08 16:30:00,
2013-05-08 11:35:00,78.7,50.2,30.00,NW,323,1.0,2.0,37,0.00,,,0.00,Wunderground v.1.15,2013-05-08 16:35:00,
2013-05-08 11:37:00,78.8,53.1,30.00,NW,315,1.0,2.0,41,0.00,,,0.00,Wunderground v.1.15,2013-05-08 16:37:00,
2013-05-08 11:39:00,79.1,52.0,30.00,South,178,1.0,2.0,39,0.00,,,0.00,Wunderground v.1.15,2013-05-08 16:39:00,
2013-05-08 11:40:00,79.3,52.2,30.00,WSW,238,1.0,2.0,39,0.00,,,0.00,Wunderground v.1.15,2013-05-08 16:40:00,
2013-05-08 11:42:00,79.3,52.2,30.00,ESE,121,0.0,2.0,39,0.00,,,0.00,Wunderground v.1.15,2013-05-08 16:42:00,
2013-05-08 11:43:00,79.4,53.0,30.00,SSW,212,0.0,5.0,40,0.00,,,0.00,Wunderground v.1.15,2013-05-08 16:43:00,
2013-05-08 11:44:00,79.3,50.0,30.00,SSW,203,1.0,5.0,36,0.00,,,0.00,Wunderground v.1.15,2013-05-08 16:44:00,
2013-05-08 11:48:00,79.2,49.2,30.00,SSW,207,2.0,5.0,35,0.00,,,0.00,Wunderground v.1.15,2013-05-08 16:48:00,
2013-05-08 11:52:00,79.0,49.0,29.99,ESE,119,2.0,2.0,35,0.00,,,0.00,Wunderground v.1.15,2013-05-08 16:52:00,
2013-05-08 11:53:00,78.9,48.9,30.00,East,80,2.0,2.0,35,0.00,,,0.00,Wunderground v.1.15,2013-05-08 16:53:00,
2013-05-08 11:54:00,78.7,50.2,29.99,East,85,2.0,2.0,37,0.00,,,0.00,Wunderground v.1.15,2013-05-08 16:54:00,
2013-05-08 11:57:00,78.6,49.4,29.99,WSW,242,1.0,2.0,36,0.00,,,0.00,Wunderground v.1.15,2013-05-08 16:57:00,
2013-05-08 11:58:00,78.7,49.5,29.99,WSW,249,1.0,2.0,36,0.00,,,0.00,Wunderground v.1.15,2013-05-08 16:58:00,
2013-05-08 12:00:00,78.8,48.1,29.99,SSW,207,2.0,5.0,34,0.00,,,0.00,Wunderground v.1.15,2013-05-08 17:00:00,
2013-05-08 12:02:00,79.0,47.4,29.99,WSW,246,2.0,5.0,33,0.00,,,0.00,Wunderground v.1.15,2013-05-08 17:02:00,
2013-05-08 12:03:00,79.1,49.1,29.99,SSW,207,2.0,6.0,35,0.00,,,0.00,Wunderground v.1.15,2013-05-08 17:03:00,
2013-05-08 12:06:00,79.0,48.2,29.99,SE,131,3.0,6.0,34,0.00,,,0.00,Wunderground v.1.15,2013-05-08 17:06:00,
2013-05-08 12:08:00,78.9,48.1,29.99,South,170,4.0,6.0,34,0.00,,,0.00,Wunderground v.1.15,2013-05-08 17:08:00,
2013-05-08 12:09:00,78.9,51.1,29.99,South,183,3.0,5.0,38,0.00,,,0.00,Wunderground v.1.15,2013-05-08 17:09:00,
2013-05-08 12:11:00,79.0,48.2,29.99,SE,143,3.0,5.0,34,0.00,,,0.00,Wunderground v.1.15,2013-05-08 17:11:00,
2013-05-08 12:14:00,79.0,48.2,29.99,SW,215,3.0,6.0,34,0.00,,,0.00,Wunderground v.1.15,2013-05-08 17:14:00,
2013-05-08 12:16:00,79.1,49.8,29.99,SSE,149,3.0,6.0,36,0.00,,,0.00,Wunderground v.1.15,2013-05-08 17:16:00,
2013-05-08 12:18:00,79.3,49.3,29.99,South,185,3.0,6.0,35,0.00,,,0.00,Wunderground v.1.15,2013-05-08 17:18:00,
2013-05-08 12:21:00,79.6,51.8,29.99,WSW,246,2.0,3.0,38,0.00,,,0.00,Wunderground v.1.15,2013-05-08 17:21:00,
2013-05-08 12:22:00,79.7,52.5,29.99,WSW,245,2.0,3.0,39,0.00,,,0.00,Wunderground v.1.15,2013-05-08 17:22:00,
2013-05-08 12:24:00,79.9,52.7,29.99,SSW,212,1.0,3.0,39,0.00,,,0.00,Wunderground v.1.15,2013-05-08 17:24:00,
2013-05-08 12:26:00,79.8,51.2,29.99,SSE,163,1.0,3.0,37,0.00,,,0.00,Wunderground v.1.15,2013-05-08 17:26:00,
2013-05-08 12:27:00,79.8,49.7,29.99,SSE,163,1.0,3.0,35,0.00,,,0.00,Wunderground v.1.15,2013-05-08 17:27:00,
2013-05-08 12:28:00,79.7,50.4,29.98,SW,233,1.0,3.0,36,0.00,,,0.00,Wunderground v.1.15,2013-05-08 17:28:00,
2013-05-08 12:30:00,79.5,48.7,29.98,WSW,253,1.0,3.0,34,0.00,,,0.00,Wunderground v.1.15,2013-05-08 17:30:00,
2013-05-08 12:31:00,79.2,47.6,29.98,WSW,257,1.0,3.0,33,0.00,,,0.00,Wunderground v.1.15,2013-05-08 17:31:00,
2013-05-08 12:32:00,79.1,46.7,29.98,West,259,1.0,4.0,32,0.00,,,0.00,Wunderground v.1.15,2013-05-08 17:32:00,
2013-05-08 12:34:00,78.7,47.2,29.98,West,267,2.0,5.0,33,0.00,,,0.00,Wunderground v.1.15,2013-05-08 17:34:00,
2013-05-08 12:37:00,78.5,47.0,29.98,WSW,238,2.0,5.0,33,0.00,,,0.00,Wunderground v.1.15,2013-05-08 17:37:00,
2013-05-08 12:38:00,78.6,47.1,29.98,West,260,3.0,5.0,33,0.00,,,0.00,Wunderground v.1.15,2013-05-08 17:38:00,
2013-05-08 12:39:00,78.6,48.7,29.98,West,269,3.0,3.0,35,0.00,,,0.00,Wunderground v.1.15,2013-05-08 17:39:00,
2013-05-08 12:42:00,79.1,49.8,29.98,WSW,253,2.0,3.0,36,0.00,,,0.00,Wunderground v.1.15,2013-05-08 17:42:00,
2013-05-08 12:44:00,79.1,46.7,29.98,East,89,2.0,5.0,32,0.00,,,0.00,Wunderground v.1.15,2013-05-08 17:44:00,
2013-05-08 12:46:00,79.1,48.3,29.98,WNW,288,2.0,5.0,34,0.00,,,0.00,Wunderground v.1.15,2013-05-08 17:46:00,
2013-05-08 12:47:00,79.2,48.4,29.98,West,271,2.0,5.0,34,0.00,,,0.00,Wunderground v.1.15,2013-05-08 17:47:00,
2013-05-08 12:48:00,79.2,49.2,29.98,WNW,283,2.0,5.0,35,0.00,,,0.00,Wunderground v.1.15,2013-05-08 17:48:00,
2013-05-08 12:51:00,79.2,48.4,29.98,West,263,2.0,2.0,34,0.00,,,0.00,Wunderground v.1.15,2013-05-08 17:51:00,
2013-05-08 12:52:00,79.2,47.6,29.98,WNW,302,1.0,2.0,33,0.00,,,0.00,Wunderground v.1.15,2013-05-08 17:52:00,
2013-05-08 12:57:00,78.8,47.3,29.98,West,279,1.0,4.0,33,0.00,,,0.00,Wunderground v.1.15,2013-05-08 17:57:00,
2013-05-08 12:59:00,78.6,46.3,29.98,West,271,1.0,4.0,32,0.00,,,0.00,Wunderground v.1.15,2013-05-08 17:59:00,
2013-05-08 13:00:00,78.5,47.8,29.98,WSW,253,1.0,1.0,34,0.00,,,0.00,Wunderground v.1.15,2013-05-08 18:00:00,
2013-05-08 13:03:00,78.3,46.8,29.98,WSW,244,2.0,2.0,33,0.00,,,0.00,Wunderground v.1.15,2013-05-08 18:03:00,
2013-05-08 13:04:00,78.3,48.4,29.98,West,262,2.0,2.0,35,0.00,,,0.00,Wunderground v.1.15,2013-05-08 18:04:00,
2013-05-08 13:05:00,78.2,46.7,29.98,WSW,246,1.0,3.0,33,0.00,,,0.00,Wunderground v.1.15,2013-05-08 18:05:00,
2013-05-08 13:07:00,78.1,49.7,29.98,West,259,1.0,3.0,37,0.00,,,0.00,Wunderground v.1.15,2013-05-08 18:07:00,
2013-05-08 13:10:00,77.9,46.5,29.97,WSW,250,1.0,2.0,33,0.00,,,0.00,Wunderground v.1.15,2013-05-08 18:10:00,
2013-05-08 13:12:00,77.8,48.7,29.98,WSW,247,1.0,2.0,36,0.00,,,0.00,Wunderground v.1.15,2013-05-08 18:12:00,
2013-05-08 13:16:00,77.7,46.3,29.97,WSW,257,2.0,3.0,33,0.00,,,0.00,Wunderground v.1.15,2013-05-08 18:16:00,
2013-05-08 13:17:00,77.7,45.5,29.98,West,263,2.0,3.0,32,0.00,,,0.00,Wunderground v.1.15,2013-05-08 18:17:00,
2013-05-08 13:18:00,77.7,46.3,29.98,West,260,2.0,3.0,33,0.00,,,0.00,Wunderground v.1.15,2013-05-08 18:18:00,
2013-05-08 13:19:00,77.7,46.3,29.97,West,260,1.0,3.0,33,0.00,,,0.00,Wunderground v.1.15,2013-05-08 18:19:00,
2013-05-08 13:23:00,78.0,48.1,29.97,West,260,1.0,1.0,35,0.00,,,0.00,Wunderground v.1.15,2013-05-08 18:23:00,
2013-05-08 13:24:00,78.1,48.2,29.97,West,260,1.0,1.0,35,0.00,,,0.00,Wunderground v.1.15,2013-05-08 18:24:00,
2013-05-08 13:25:00,78.2,46.7,29.97,ESE,118,1.0,1.0,33,0.00,,,0.00,Wunderground v.1.15,2013-05-08 18:25:00,
2013-05-08 13:26:00,78.2,45.9,29.97,SE,124,1.0,1.0,32,0.00,,,0.00,Wunderground v.1.15,2013-05-08 18:26:00,
2013-05-08 13:29:00,78.3,46.0,29.97,ESE,113,0.0,1.0,32,0.00,,,0.00,Wunderground v.1.15,2013-05-08 18:29:00,
2013-05-08 13:32:00,78.3,46.8,29.97,ENE,75,0.0,1.0,33,0.00,,,0.00,Wunderground v.1.15,2013-05-08 18:32:00,
2013-05-08 13:33:00,78.3,47.6,29.97,ESE,120,0.0,1.0,34,0.00,,,0.00,Wunderground v.1.15,2013-05-08 18:33:00,
2013-05-08 13:34:00,78.3,46.8,29.97,East,86,0.0,1.0,33,0.00,,,0.00,Wunderground v.1.15,2013-05-08 18:34:00,
2013-05-08 13:38:00,78.4,47.7,29.97,ESE,117,0.0,1.0,34,0.00,,,0.00,Wunderground v.1.15,2013-05-08 18:38:00,
2013-05-08 13:40:00,78.4,47.7,29.97,ESE,105,0.0,1.0,34,0.00,,,0.00,Wunderground v.1.15,2013-05-08 18:40:00,
2013-05-08 13:42:00,78.5,47.0,29.97,SE,139,1.0,1.0,33,0.00,,,0.00,Wunderground v.1.15,2013-05-08 18:42:00,
2013-05-08 13:44:00,78.5,47.0,29.97,SSE,156,1.0,1.0,33,0.00,,,0.00,Wunderground v.1.15,2013-05-08 18:44:00,
2013-05-08 13:45:00,78.5,48.6,29.97,South,185,1.0,1.0,35,0.00,,,0.00,Wunderground v.1.15,2013-05-08 18:45:00,
2013-05-08 13:47:00,78.8,47.3,29.97,SE,132,0.0,1.0,33,0.00,,,0.00,Wunderground v.1.15,2013-05-08 18:47:00,
2013-05-08 13:48:00,78.9,48.1,29.97,ENE,73,1.0,1.0,34,0.00,,,0.00,Wunderground v.1.15,2013-05-08 18:48:00,
2013-05-08 13:49:00,79.0,48.2,29.97,SE,134,0.0,1.0,34,0.00,,,0.00,Wunderground v.1.15,2013-05-08 18:49:00,
2013-05-08 13:52:00,79.1,46.7,29.97,South,174,0.0,1.0,32,0.00,,,0.00,Wunderground v.1.15,2013-05-08 18:52:00,
2013-05-08 13:53:00,79.1,47.5,29.97,ESE,117,0.0,1.0,33,0.00,,,0.00,Wunderground v.1.15,2013-05-08 18:53:00,
2013-05-08 13:56:00,78.9,46.5,29.97,West,260,1.0,1.0,32,0.00,,,0.00,Wunderground v.1.15,2013-05-08 18:56:00,
2013-05-08 13:57:00,78.9,46.5,29.97,West,276,1.0,1.0,32,0.00,,,0.00,Wunderground v.1.15,2013-05-08 18:57:00,
2013-05-08 13:59:00,78.8,46.4,29.97,NNW,336,1.0,1.0,32,0.00,,,0.00,Wunderground v.1.15,2013-05-08 18:59:00,
2013-05-08 14:00:00,78.7,48.7,29.97,NNW,335,0.0,0.0,35,0.00,,,0.00,Wunderground v.1.15,2013-05-08 19:00:00,
2013-05-08 14:04:00,78.8,46.4,29.97,NW,311,0.0,0.0,32,0.00,,,0.00,Wunderground v.1.15,2013-05-08 19:04:00,
2013-05-08 14:07:00,78.8,47.3,29.97,SSW,200,0.0,2.0,33,0.00,,,0.00,Wunderground v.1.15,2013-05-08 19:07:00,
2013-05-08 14:08:00,78.8,46.4,29.97,SSW,201,0.0,2.0,32,0.00,,,0.00,Wunderground v.1.15,2013-05-08 19:08:00,
2013-05-08 14:09:00,78.8,47.3,29.97,SSW,200,0.0,2.0,33,0.00,,,0.00,Wunderground v.1.15,2013-05-08 19:09:00,
2013-05-08 14:11:00,78.8,46.4,29.97,SE,141,1.0,1.0,32,0.00,,,0.00,Wunderground v.1.15,2013-05-08 19:11:00,
2013-05-08 14:13:00,78.8,45.6,29.97,SE,128,1.0,2.0,31,0.00,,,0.00,Wunderground v.1.15,2013-05-08 19:13:00,
2013-05-08 14:14:00,78.8,46.4,29.96,SE,146,1.0,2.0,32,0.00,,,0.00,Wunderground v.1.15,2013-05-08 19:14:00,
2013-05-08 14:15:00,78.8,47.3,29.96,SSW,197,1.0,2.0,33,0.00,,,0.00,Wunderground v.1.15,2013-05-08 19:15:00,
2013-05-08 14:18:00,78.8,47.3,29.96,WSW,253,1.0,2.0,33,0.00,,,0.00,Wunderground v.1.15,2013-05-08 19:18:00,
2013-05-08 14:20:00,78.7,46.4,29.96,WSW,257,1.0,1.0,32,0.00,,,0.00,Wunderground v.1.15,2013-05-08 19:20:00,
2013-05-08 14:23:00,78.6,45.4,29.97,West,264,1.0,1.0,31,0.00,,,0.00,Wunderground v.1.15,2013-05-08 19:23:00,
2013-05-08 14:24:00,78.6,45.4,29.96,West,280,1.0,2.0,31,0.00,,,0.00,Wunderground v.1.15,2013-05-08 19:24:00,
2013-05-08 14:26:00,78.6,47.1,29.96,West,269,1.0,2.0,33,0.00,,,0.00,Wunderground v.1.15,2013-05-08 19:26:00,
2013-05-08 14:27:00,78.7,48.0,29.96,West,266,1.0,2.0,34,0.00,,,0.00,Wunderground v.1.15,2013-05-08 19:27:00,
2013-05-08 14:29:00,78.8,48.1,29.96,West,274,0.0,2.0,34,0.00,,,0.00,Wunderground v.1.15,2013-05-08 19:29:00,
2013-05-08 14:30:00,78.7,46.4,29.96,SSW,213,0.0,0.0,32,0.00,,,0.00,Wunderground v.1.15,2013-05-08 19:30:00,
2013-05-08 14:32:00,78.7,46.4,29.96,ENE,70,0.0,1.0,32,0.00,,,0.00,Wunderground v.1.15,2013-05-08 19:32:00,
2013-05-08 14:34:00,78.8,45.6,29.96,ESE,108,0.0,1.0,31,0.00,,,0.00,Wunderground v.1.15,2013-05-08 19:34:00,
2013-05-08 14:35:00,78.8,46.4,29.96,ESE,110,0.0,1.0,32,0.00,,,0.00,Wunderground v.1.15,2013-05-08 19:35:00,
2013-05-08 14:37:00,78.8,49.6,29.96,SSE,160,0.0,1.0,36,0.00,,,0.00,Wunderground v.1.15,2013-05-08 19:37:00,
2013-05-08 14:41:00,79.0,46.6,29.96,SE,142,0.0,1.0,32,0.00,,,0.00,Wunderground v.1.15,2013-05-08 19:41:00,
2013-05-08 14:42:00,79.1,49.1,29.96,SE,139,0.0,2.0,35,0.00,,,0.00,Wunderground v.1.15,2013-05-08 19:42:00,
2013-05-08 14:43:00,79.2,47.6,29.96,SE,129,0.0,2.0,33,0.00,,,0.00,Wunderground v.1.15,2013-05-08 19:43:00,
2013-05-08 14:46:00,79.4,47.8,29.96,SSE,167,1.0,3.0,33,0.00,,,0.00,Wunderground v.1.15,2013-05-08 19:46:00,
2013-05-08 14:48:00,79.7,46.4,29.96,SSW,194,1.0,3.0,31,0.00,,,0.00,Wunderground v.1.15,2013-05-08 19:48:00,
2013-05-08 14:49:00,79.8,47.3,29.96,SSW,204,1.0,3.0,32,0.00,,,0.00,Wunderground v.1.15,2013-05-08 19:49:00,
2013-05-08 14:50:00,80.0,47.5,29.96,SW,215,1.0,1.0,32,0.00,,,0.00,Wunderground v.1.15,2013-05-08 19:50:00,
2013-05-08 14:52:00,80.3,48.6,29.96,SW,228,1.0,1.0,33,0.00,,,0.00,Wunderground v.1.15,2013-05-08 19:52:00,
2013-05-08 14:53:00,80.4,48.7,29.96,WSW,240,1.0,3.0,33,0.00,,,0.00,Wunderground v.1.15,2013-05-08 19:53:00,
2013-05-08 14:55:00,80.5,49.5,29.96,West,269,1.0,3.0,34,0.00,,,0.00,Wunderground v.1.15,2013-05-08 19:55:00,
2013-05-08 14:57:00,80.5,47.9,29.96,West,269,1.0,3.0,32,0.00,,,0.00,Wunderground v.1.15,2013-05-08 19:57:00,
2013-05-08 14:58:00,80.4,47.0,29.96,West,269,1.0,3.0,31,0.00,,,0.00,Wunderground v.1.15,2013-05-08 19:58:00,
2013-05-08 14:59:00,80.4,48.7,29.96,West,268,1.0,3.0,33,0.00,,,0.00,Wunderground v.1.15,2013-05-08 19:59:00,
2013-05-08 15:00:00,80.4,49.5,29.95,NNE,18,1.0,1.0,34,0.00,,,0.00,Wunderground v.1.15,2013-05-08 20:00:00,
2013-05-08 15:02:00,80.4,52.5,29.96,ESE,110,1.0,3.0,38,0.00,,,0.00,Wunderground v.1.15,2013-05-08 20:02:00,
2013-05-08 15:05:00,80.4,49.5,29.95,West,265,1.0,3.0,34,0.00,,,0.00,Wunderground v.1.15,2013-05-08 20:05:00,
2013-05-08 15:07:00,80.5,48.7,29.95,SW,233,0.0,3.0,33,0.00,,,0.00,Wunderground v.1.15,2013-05-08 20:07:00,
2013-05-08 15:09:00,80.5,47.9,29.95,SW,231,1.0,6.0,32,0.00,,,0.00,Wunderground v.1.15,2013-05-08 20:09:00,
2013-05-08 15:10:00,80.4,47.0,29.95,SW,226,1.0,5.0,31,0.00,,,0.00,Wunderground v.1.15,2013-05-08 20:10:00,
2013-05-08 15:12:00,80.3,47.7,29.95,West,265,2.0,5.0,32,0.00,,,0.00,Wunderground v.1.15,2013-05-08 20:12:00,
2013-05-08 15:13:00,80.3,45.1,29.95,West,262,2.0,5.0,29,0.00,,,0.00,Wunderground v.1.15,2013-05-08 20:13:00,
2013-05-08 15:15:00,80.3,46.9,29.95,South,169,2.0,5.0,31,0.00,,,0.00,Wunderground v.1.15,2013-05-08 20:15:00,
2013-05-08 15:16:00,80.4,46.1,29.95,SSW,200,2.0,5.0,30,0.00,,,0.00,Wunderground v.1.15,2013-05-08 20:16:00,
2013-05-08 15:18:00,80.6,48.0,29.95,SW,228,2.0,6.0,32,0.00,,,0.00,Wunderground v.1.15,2013-05-08 20:18:00,
2013-05-08 15:21:00,80.4,46.1,29.95,SW,231,2.0,7.0,30,0.00,,,0.00,Wunderground v.1.15,2013-05-08 20:21:00,
2013-05-08 15:23:00,80.3,46.9,29.95,WSW,250,3.0,7.0,31,0.00,,,0.00,Wunderground v.1.15,2013-05-08 20:23:00,
2013-05-08 15:24:00,80.3,49.4,29.95,SSW,193,3.0,7.0,34,0.00,,,0.00,Wunderground v.1.15,2013-05-08 20:24:00,
2013-05-08 15:25:00,80.3,47.7,29.95,ESE,120,4.0,7.0,32,0.00,,,0.00,Wunderground v.1.15,2013-05-08 20:25:00,
2013-05-08 15:26:00,80.3,46.9,29.95,SE,131,4.0,7.0,31,0.00,,,0.00,Wunderground v.1.15,2013-05-08 20:26:00,
2013-05-08 15:28:00,80.4,48.7,29.95,West,264,4.0,7.0,33,0.00,,,0.00,Wunderground v.1.15,2013-05-08 20:28:00,
2013-05-08 15:29:00,80.4,47.8,29.95,WSW,256,4.0,7.0,32,0.00,,,0.00,Wunderground v.1.15,2013-05-08 20:29:00,
2013-05-08 15:31:00,80.3,46.0,29.95,SE,143,3.0,3.0,30,0.00,,,0.00,Wunderground v.1.15,2013-05-08 20:31:00,
2013-05-08 15:32:00,80.4,48.7,29.94,SE,129,2.0,3.0,33,0.00,,,0.00,Wunderground v.1.15,2013-05-08 20:32:00,
2013-05-08 15:34:00,80.3,46.0,29.94,East,96,2.0,3.0,30,0.00,,,0.00,Wunderground v.1.15,2013-05-08 20:34:00,
2013-05-08 15:37:00,80.2,46.8,29.94,ESE,115,1.0,3.0,31,0.00,,,0.00,Wunderground v.1.15,2013-05-08 20:37:00,
2013-05-08 15:38:00,80.1,46.7,29.94,SE,133,1.0,3.0,31,0.00,,,0.00,Wunderground v.1.15,2013-05-08 20:38:00,
2013-05-08 15:40:00,80.0,47.5,29.94,South,169,1.0,2.0,32,0.00,,,0.00,Wunderground v.1.15,2013-05-08 20:40:00,
2013-05-08 15:41:00,80.0,47.5,29.94,SE,146,1.0,3.0,32,0.00,,,0.00,Wunderground v.1.15,2013-05-08 20:41:00,
2013-05-08 15:45:00,79.9,47.4,29.94,SSE,158,2.0,3.0,32,0.00,,,0.00,Wunderground v.1.15,2013-05-08 20:45:00,
2013-05-08 15:46:00,79.9,47.4,29.94,SE,141,2.0,3.0,32,0.00,,,0.00,Wunderground v.1.15,2013-05-08 20:46:00,
2013-05-08 15:47:00,79.8,48.1,29.94,SSE,166,2.0,3.0,33,0.00,,,0.00,Wunderground v.1.15,2013-05-08 20:47:00,
2013-05-08 15:48:00,79.8,48.9,29.94,SSE,163,2.0,3.0,34,0.00,,,0.00,Wunderground v.1.15,2013-05-08 20:48:00,
2013-05-08 15:51:00,79.8,46.5,29.94,SSW,210,2.0,2.0,31,0.00,,,0.00,Wunderground v.1.15,2013-05-08 20:51:00,
2013-05-08 15:52:00,79.8,48.9,29.94,South,179,2.0,2.0,34,0.00,,,0.00,Wunderground v.1.15,2013-05-08 20:52:00,
2013-05-08 15:55:00,79.7,48.8,29.94,SW,221,1.0,6.0,34,0.00,,,0.00,Wunderground v.1.15,2013-05-08 20:55:00,
2013-05-08 15:57:00,79.6,50.3,29.94,SW,231,2.0,6.0,36,0.00,,,0.00,Wunderground v.1.15,2013-05-08 20:57:00,
2013-05-08 15:59:00,79.5,48.7,29.94,SSW,193,2.0,6.0,34,0.00,,,0.00,Wunderground v.1.15,2013-05-08 20:59:00,
2013-05-08 16:00:00,79.4,47.8,29.94,SSW,194,3.0,3.0,33,0.00,,,0.00,Wunderground v.1.15,2013-05-08 21:00:00,
2013-05-08 16:01:00,79.4,48.6,29.94,SSW,199,3.0,5.0,34,0.00,,,0.00,Wunderground v.1.15,2013-05-08 21:01:00,
2013-05-08 16:02:00,79.4,47.8,29.94,South,176,3.0,5.0,33,0.00,,,0.00,Wunderground v.1.15,2013-05-08 21:02:00,
2013-05-08 16:04:00,79.4,50.1,29.94,South,173,4.0,5.0,36,0.00,,,0.00,Wunderground v.1.15,2013-05-08 21:04:00,
2013-05-08 16:06:00,79.4,48.6,29.94,South,172,3.0,5.0,34,0.00,,,0.00,Wunderground v.1.15,2013-05-08 21:06:00,
2013-05-08 16:09:00,79.3,46.0,29.94,South,172,3.0,5.0,31,0.00,,,0.00,Wunderground v.1.15,2013-05-08 21:09:00,
2013-05-08 16:10:00,79.3,46.9,29.94,South,170,3.0,3.0,32,0.00,,,0.00,Wunderground v.1.15,2013-05-08 21:10:00,
2013-05-08 16:13:00,79.3,48.5,29.94,SSW,198,3.0,4.0,34,0.00,,,0.00,Wunderground v.1.15,2013-05-08 21:13:00,
2013-05-08 16:15:00,79.3,50.0,29.94,WSW,248,3.0,5.0,36,0.00,,,0.00,Wunderground v.1.15,2013-05-08 21:15:00,
2013-05-08 16:16:00,79.2,48.4,29.94,WSW,243,3.0,5.0,34,0.00,,,0.00,Wunderground v.1.15,2013-05-08 21:16:00,
2013-05-08 16:20:00,79.0,47.4,29.94,SW,217,3.0,5.0,33,0.00,,,0.00,Wunderground v.1.15,2013-05-08 21:20:00,
2013-05-08 16:22:00,79.0,49.0,29.94,SW,224,4.0,5.0,35,0.00,,,0.00,Wunderground v.1.15,2013-05-08 21:22:00,
2013-05-08 16:23:00,79.0,46.6,29.94,SSW,213,5.0,5.0,32,0.00,,,0.00,Wunderground v.1.15,2013-05-08 21:23:00,
2013-05-08 16:26:00,78.9,46.5,29.94,NW,309,4.0,5.0,32,0.00,,,0.00,Wunderground v.1.15,2013-05-08 21:26:00,
2013-05-08 16:27:00,78.9,46.5,29.94,West,263,4.0,5.0,32,0.00,,,0.00,Wunderground v.1.15,2013-05-08 21:27:00,
2013-05-08 16:28:00,78.9,46.5,29.94,WSW,245,3.0,5.0,32,0.00,,,0.00,Wunderground v.1.15,2013-05-08 21:28:00,
2013-05-08 16:31:00,78.9,47.3,29.94,SSW,212,2.0,3.0,33,0.00,,,0.00,Wunderground v.1.15,2013-05-08 21:31:00,
2013-05-08 16:32:00,78.9,46.5,29.94,South,181,2.0,3.0,32,0.00,,,0.00,Wunderground v.1.15,2013-05-08 21:32:00,
2013-05-08 16:33:00,78.9,46.5,29.94,SW,221,1.0,3.0,32,0.00,,,0.00,Wunderground v.1.15,2013-05-08 21:33:00,
2013-05-08 16:34:00,78.9,48.1,29.94,SSW,207,1.0,4.0,34,0.00,,,0.00,Wunderground v.1.15,2013-05-08 21:34:00,
2013-05-08 16:35:00,78.9,47.3,29.94,South,188,1.0,5.0,33,0.00,,,0.00,Wunderground v.1.15,2013-05-08 21:35:00,
2013-05-08 16:36:00,78.9,48.9,29.94,SSW,195,2.0,5.0,35,0.00,,,0.00,Wunderground v.1.15,2013-05-08 21:36:00,
2013-05-08 16:38:00,78.8,48.1,29.94,South,185,2.0,5.0,34,0.00,,,0.00,Wunderground v.1.15,2013-05-08 21:38:00,
2013-05-08 16:41:00,78.8,49.6,29.94,South,177,3.0,3.0,36,0.00,,,0.00,Wunderground v.1.15,2013-05-08 21:41:00,
2013-05-08 16:44:00,78.7,48.7,29.94,SW,217,3.0,3.0,35,0.00,,,0.00,Wunderground v.1.15,2013-05-08 21:44:00,
2013-05-08 16:46:00,78.7,49.5,29.94,SW,225,2.0,3.0,36,0.00,,,0.00,Wunderground v.1.15,2013-05-08 21:46:00,
2013-05-08 16:47:00,78.7,48.7,29.94,SW,235,2.0,3.0,35,0.00,,,0.00,Wunderground v.1.15,2013-05-08 21:47:00,
2013-05-08 16:50:00,78.6,47.9,29.94,WSW,246,2.0,4.0,34,0.00,,,0.00,Wunderground v.1.15,2013-05-08 21:50:00,
2013-05-08 16:53:00,78.5,48.6,29.94,SW,229,3.0,5.0,35,0.00,,,0.00,Wunderground v.1.15,2013-05-08 21:53:00,
2013-05-08 16:54:00,78.5,50.8,29.94,SW,228,3.0,5.0,38,0.00,,,0.00,Wunderground v.1.15,2013-05-08 21:54:00,
2013-05-08 16:55:00,78.5,51.5,29.94,WSW,253,3.0,5.0,39,0.00,,,0.00,Wunderground v.1.15,2013-05-08 21:55:00,
2013-05-08 16:57:00,78.5,48.6,29.94,West,259,4.0,5.0,35,0.00,,,0.00,Wunderground v.1.15,2013-05-08 21:57:00,
2013-05-08 17:00:00,78.5,47.8,29.94,SW,231,3.0,4.0,34,0.00,,,0.00,Wunderground v.1.15,2013-05-08 22:00:00,
2013-05-08 17:01:00,78.5,47.0,29.94,SW,233,4.0,4.0,33,0.00,,,0.00,Wunderground v.1.15,2013-05-08 22:01:00,
2013-05-08 17:02:00,78.5,47.8,29.94,WSW,238,3.0,5.0,34,0.00,,,0.00,Wunderground v.1.15,2013-05-08 22:02:00,
2013-05-08 17:04:00,78.5,48.6,29.94,West,265,3.0,5.0,35,0.00,,,0.00,Wunderground v.1.15,2013-05-08 22:04:00,
2013-05-08 17:06:00,78.5,47.0,29.94,WSW,255,3.0,5.0,33,0.00,,,0.00,Wunderground v.1.15,2013-05-08 22:06:00,
2013-05-08 17:08:00,78.6,48.7,29.94,WSW,248,3.0,5.0,35,0.00,,,0.00,Wunderground v.1.15,2013-05-08 22:08:00,
2013-05-08 17:10:00,78.6,48.7,29.94,SW,235,4.0,7.0,35,0.00,,,0.00,Wunderground v.1.15,2013-05-08 22:10:00,
2013-05-08 17:12:00,78.6,46.3,29.94,WSW,238,4.0,7.0,32,0.00,,,0.00,Wunderground v.1.15,2013-05-08 22:12:00,
2013-05-08 17:13:00,78.6,48.7,29.94,SW,235,4.0,7.0,35,0.00,,,0.00,Wunderground v.1.15,2013-05-08 22:13:00,
2013-05-08 17:15:00,78.5,50.8,29.94,SW,231,5.0,7.0,38,0.00,,,0.00,Wunderground v.1.15,2013-05-08 22:15:00,
2013-05-08 17:19:00,78.4,47.7,29.94,SSW,210,5.0,7.0,34,0.00,,,0.00,Wunderground v.1.15,2013-05-08 22:19:00,
2013-05-08 17:20:00,78.4,46.1,29.94,SW,215,5.0,5.0,32,0.00,,,0.00,Wunderground v.1.15,2013-05-08 22:20:00,
2013-05-08 17:21:00,78.4,46.1,29.94,South,190,4.0,5.0,32,0.00,,,0.00,Wunderground v.1.15,2013-05-08 22:21:00,
2013-05-08 17:25:00,78.5,47.0,29.94,SSW,193,3.0,5.0,33,0.00,,,0.00,Wunderground v.1.15,2013-05-08 22:25:00,
2013-05-08 17:26:00,78.5,46.2,29.94,SSW,193,3.0,5.0,32,0.00,,,0.00,Wunderground v.1.15,2013-05-08 22:26:00,
2013-05-08 17:29:00,78.5,48.6,29.94,South,180,2.0,5.0,35,0.00,,,0.00,Wunderground v.1.15,2013-05-08 22:29:00,
2013-05-08 17:34:00,78.4,48.5,29.94,SSW,207,1.0,3.0,35,0.00,,,0.00,Wunderground v.1.15,2013-05-08 22:34:00,
2013-05-08 17:35:00,78.4,48.5,29.94,SW,229,2.0,3.0,35,0.00,,,0.00,Wunderground v.1.15,2013-05-08 22:35:00,
2013-05-08 17:38:00,78.3,50.6,29.94,SW,229,2.0,3.0,38,0.00,,,0.00,Wunderground v.1.15,2013-05-08 22:38:00,
2013-05-08 17:39:00,78.3,50.6,29.94,WSW,242,2.0,3.0,38,0.00,,,0.00,Wunderground v.1.15,2013-05-08 22:39:00,
2013-05-08 17:41:00,78.1,49.7,29.94,WSW,242,2.0,2.0,37,0.00,,,0.00,Wunderground v.1.15,2013-05-08 22:41:00,
2013-05-08 17:43:00,78.1,50.4,29.94,WNW,293,2.0,2.0,38,0.00,,,0.00,Wunderground v.1.15,2013-05-08 22:43:00,
2013-05-08 17:44:00,78.1,49.0,29.94,WNW,285,2.0,2.0,36,0.00,,,0.00,Wunderground v.1.15,2013-05-08 22:44:00,
2013-05-08 17:48:00,78.1,48.2,29.94,WSW,253,2.0,3.0,35,0.00,,,0.00,Wunderground v.1.15,2013-05-08 22:48:00,
2013-05-08 17:50:00,78.4,50.0,29.94,WSW,240,2.0,4.0,37,0.00,,,0.00,Wunderground v.1.15,2013-05-08 22:50:00,
2013-05-08 17:53:00,78.7,49.5,29.94,SW,226,2.0,4.0,36,0.00,,,0.00,Wunderground v.1.15,2013-05-08 22:53:00,
2013-05-08 17:54:00,78.9,48.1,29.94,WSW,242,2.0,4.0,34,0.00,,,0.00,Wunderground v.1.15,2013-05-08 22:54:00,
2013-05-08 17:55:00,79.1,48.3,29.94,SW,228,2.0,4.0,34,0.00,,,0.00,Wunderground v.1.15,2013-05-08 22:55:00,
2013-05-08 17:58:00,79.5,49.4,29.94,WSW,245,1.0,4.0,35,0.00,,,0.00,Wunderground v.1.15,2013-05-08 22:58:00,
2013-05-08 18:00:00,79.6,48.0,29.94,West,259,2.0,2.0,33,0.00,,,0.00,Wunderground v.1.15,2013-05-08 23:00:00,
2013-05-08 18:01:00,79.7,49.6,29.94,SW,231,2.0,3.0,35,0.00,,,0.00,Wunderground v.1.15,2013-05-08 23:01:00,
2013-05-08 18:03:00,79.9,48.2,29.93,WSW,255,2.0,5.0,33,0.00,,,0.00,Wunderground v.1.15,2013-05-08 23:03:00,
2013-05-08 18:04:00,79.9,48.2,29.93,SW,223,2.0,5.0,33,0.00,,,0.00,Wunderground v.1.15,2013-05-08 23:04:00,
2013-05-08 18:08:00,80.1,46.7,29.93,SSW,203,3.0,5.0,31,0.00,,,0.00,Wunderground v.1.15,2013-05-08 23:08:00,
2013-05-08 18:09:00,80.1,47.6,29.93,SSW,200,3.0,3.0,32,0.00,,,0.00,Wunderground v.1.15,2013-05-08 23:09:00,
2013-05-08 18:10:00,80.1,47.6,29.93,SW,214,3.0,4.0,32,0.00,,,0.00,Wunderground v.1.15,2013-05-08 23:10:00,
2013-05-08 18:15:00,79.8,48.1,29.93,SW,232,3.0,4.0,33,0.00,,,0.00,Wunderground v.1.15,2013-05-08 23:15:00,
2013-05-08 18:16:00,79.8,48.1,29.93,WSW,248,3.0,4.0,33,0.00,,,0.00,Wunderground v.1.15,2013-05-08 23:16:00,
2013-05-08 18:17:00,79.8,47.3,29.93,WSW,256,2.0,4.0,32,0.00,,,0.00,Wunderground v.1.15,2013-05-08 23:17:00,
2013-05-08 18:18:00,79.7,48.8,29.93,WSW,243,2.0,4.0,34,0.00,,,0.00,Wunderground v.1.15,2013-05-08 23:18:00,
2013-05-08 18:21:00,79.6,48.8,29.93,WSW,248,2.0,4.0,34,0.00,,,0.00,Wunderground v.1.15,2013-05-08 23:21:00,
2013-05-08 18:23:00,79.4,47.8,29.93,SW,221,1.0,4.0,33,0.00,,,0.00,Wunderground v.1.15,2013-05-08 23:23:00,
2013-05-08 18:25:00,79.3,48.5,29.93,SW,221,1.0,4.0,34,0.00,,,0.00,Wunderground v.1.15,2013-05-08 23:25:00,
2013-05-08 18:28:00,79.3,47.7,29.93,SW,221,1.0,4.0,33,0.00,,,0.00,Wunderground v.1.15,2013-05-08 23:28:00,
2013-05-08 18:29:00,79.4,47.8,29.93,SW,221,1.0,1.0,33,0.00,,,0.00,Wunderground v.1.15,2013-05-08 23:29:00,
2013-05-08 18:31:00,79.4,47.0,29.93,SW,221,1.0,1.0,32,0.00,,,0.00,Wunderground v.1.15,2013-05-08 23:31:00,
2013-05-08 18:32:00,79.4,47.8,29.93,SSW,208,0.0,1.0,33,0.00,,,0.00,Wunderground v.1.15,2013-05-08 23:32:00,
2013-05-08 18:33:00,79.4,47.8,29.93,SSW,211,0.0,1.0,33,0.00,,,0.00,Wunderground v.1.15,2013-05-08 23:33:00,
2013-05-08 18:36:00,79.2,48.4,29.93,SSW,213,0.0,1.0,34,0.00,,,0.00,Wunderground v.1.15,2013-05-08 23:36:00,
2013-05-08 18:37:00,79.0,49.8,29.93,SSW,207,0.0,1.0,36,0.00,,,0.00,Wunderground v.1.15,2013-05-08 23:37:00,
2013-05-08 18:38:00,78.9,48.9,29.93,SSW,206,0.0,1.0,35,0.00,,,0.00,Wunderground v.1.15,2013-05-08 23:38:00,
2013-05-08 18:39:00,78.8,49.6,29.93,SSW,207,0.0,0.0,36,0.00,,,0.00,Wunderground v.1.15,2013-05-08 23:39:00,
2013-05-08 18:41:00,78.5,50.8,29.93,SSW,211,0.0,0.0,38,0.00,,,0.00,Wunderground v.1.15,2013-05-08 23:41:00,
2013-05-08 18:45:00,78.1,51.1,29.93,WSW,245,0.0,1.0,39,0.00,,,0.00,Wunderground v.1.15,2013-05-08 23:45:00,
2013-05-08 18:46:00,77.8,52.2,29.93,WSW,238,0.0,1.0,41,0.00,,,0.00,Wunderground v.1.15,2013-05-08 23:46:00,
2013-05-08 18:49:00,77.4,51.9,29.93,WSW,246,0.0,1.0,41,0.00,,,0.00,Wunderground v.1.15,2013-05-08 23:49:00,
2013-05-08 18:50:00,77.3,51.1,29.93,WSW,242,0.0,1.0,40,0.00,,,0.00,Wunderground v.1.15,2013-05-08 23:50:00,
2013-05-08 18:51:00,77.1,50.2,29.93,WSW,240,0.0,1.0,39,0.00,,,0.00,Wunderground v.1.15,2013-05-08 23:51:00,
2013-05-08 18:55:00,76.7,51.9,29.93,WSW,245,1.0,1.0,42,0.00,,,0.00,Wunderground v.1.15,2013-05-08 23:55:00,
2013-05-08 18:58:00,76.4,51.6,29.93,WSW,252,1.0,1.0,42,0.00,,,0.00,Wunderground v.1.15,2013-05-08 23:58:00,
2013-05-08 18:59:00,76.4,51.6,29.93,WSW,252,1.0,1.0,42,0.00,,,0.00,Wunderground v.1.15,2013-05-08 23:59:00,
2013-05-08 19:00:00,76.2,52.1,29.93,WSW,252,0.0,0.0,43,0.00,,,0.00,Wunderground v.1.15,2013-05-09 00:00:00,
2013-05-08 19:03:00,75.9,53.0,29.93,WSW,252,0.0,0.0,45,0.00,,,0.00,Wunderground v.1.15,2013-05-09 00:03:00,
2013-05-08 19:04:00,75.7,53.4,29.93,WSW,252,0.0,0.0,46,0.00,,,0.00,Wunderground v.1.15,2013-05-09 00:04:00,
2013-05-08 19:05:00,75.6,52.8,29.93,WSW,252,0.0,0.0,45,0.00,,,0.00,Wunderground v.1.15,2013-05-09 00:05:00,
2013-05-08 19:07:00,75.4,52.0,29.93,WSW,252,0.0,0.0,44,0.00,,,0.00,Wunderground v.1.15,2013-05-09 00:07:00,
2013-05-08 19:11:00,75.1,52.9,29.93,WSW,252,0.0,0.0,46,0.00,,,0.00,Wunderground v.1.15,2013-05-09 00:11:00,
2013-05-08 19:12:00,75.1,52.9,29.93,WSW,252,0.0,0.0,46,0.00,,,0.00,Wunderground v.1.15,2013-05-09 00:12:00,
2013-05-08 19:13:00,74.9,53.9,29.93,WSW,252,0.0,0.0,48,0.00,,,0.00,Wunderground v.1.15,2013-05-09 00:13:00,
2013-05-08 19:15:00,74.8,53.2,29.93,WSW,252,0.0,0.0,47,0.00,,,0.00,Wunderground v.1.15,2013-05-09 00:15:00,
2013-05-08 19:18:00,74.5,54.6,29.93,WSW,252,0.0,0.0,50,0.00,,,0.00,Wunderground v.1.15,2013-05-09 00:18:00,
2013-05-08 19:20:00,74.3,55.0,29.93,WSW,252,0.0,0.0,51,0.00,,,0.00,Wunderground v.1.15,2013-05-09 00:20:00,
2013-05-08 19:21:00,74.2,55.4,29.93,WSW,252,0.0,0.0,52,0.00,,,0.00,Wunderground v.1.15,2013-05-09 00:21:00,
2013-05-08 19:23:00,73.9,56.2,29.93,WSW,252,0.0,0.0,54,0.00,,,0.00,Wunderground v.1.15,2013-05-09 00:23:00,
2013-05-08 19:26:00,73.5,54.8,29.93,WSW,252,0.0,0.0,52,0.00,,,0.00,Wunderground v.1.15,2013-05-09 00:26:00,
2013-05-08 19:28:00,73.3,54.6,29.93,WSW,252,0.0,0.0,52,0.00,,,0.00,Wunderground v.1.15,2013-05-09 00:28:00,
2013-05-08 19:29:00,73.2,54.5,29.93,WSW,252,0.0,0.0,52,0.00,,,0.00,Wunderground v.1.15,2013-05-09 00:29:00,
2013-05-08 19:31:00,73.0,54.9,29.93,WSW,252,0.0,0.0,53,0.00,,,0.00,Wunderground v.1.15,2013-05-09 00:31:00,
2013-05-08 19:33:00,72.9,54.8,29.93,WSW,252,0.0,0.0,53,0.00,,,0.00,Wunderground v.1.15,2013-05-09 00:33:00,
2013-05-08 19:34:00,72.8,54.7,29.93,WSW,252,0.0,0.0,53,0.00,,,0.00,Wunderground v.1.15,2013-05-09 00:34:00,
2013-05-08 19:36:00,72.7,55.6,29.93,WSW,252,0.0,0.0,55,0.00,,,0.00,Wunderground v.1.15,2013-05-09 00:36:00,
2013-05-08 19:38:00,72.5,55.4,29.93,WSW,252,0.0,0.0,55,0.00,,,0.00,Wunderground v.1.15,2013-05-09 00:38:00,
2013-05-08 19:40:00,72.3,55.2,29.93,WSW,252,0.0,0.0,55,0.00,,,0.00,Wunderground v.1.15,2013-05-09 00:40:00,
2013-05-08 19:42:00,72.0,54.9,29.93,WSW,252,0.0,0.0,55,0.00,,,0.00,Wunderground v.1.15,2013-05-09 00:42:00,
2013-05-08 19:43:00,71.9,55.3,29.94,WSW,252,0.0,0.0,56,0.00,,,0.00,Wunderground v.1.15,2013-05-09 00:43:00,
2013-05-08 19:44:00,71.8,55.3,29.93,WSW,252,0.0,0.0,56,0.00,,,0.00,Wunderground v.1.15,2013-05-09 00:44:00,
2013-05-08 19:47:00,71.5,55.0,29.93,WSW,252,0.0,0.0,56,0.00,,,0.00,Wunderground v.1.15,2013-05-09 00:47:00,
2013-05-08 19:48:00,71.4,54.9,29.93,WSW,252,0.0,0.0,56,0.00,,,0.00,Wunderground v.1.15,2013-05-09 00:48:00,
2013-05-08 19:50:00,71.2,54.2,29.94,WSW,252,0.0,0.0,55,0.00,,,0.00,Wunderground v.1.15,2013-05-09 00:50:00,
2013-05-08 19:52:00,71.1,54.6,29.94,WSW,252,0.0,0.0,56,0.00,,,0.00,Wunderground v.1.15,2013-05-09 00:52:00,
2013-05-08 19:54:00,70.9,53.9,29.94,WSW,252,0.0,0.0,55,0.00,,,0.00,Wunderground v.1.15,2013-05-09 00:54:00,
2013-05-08 19:55:00,70.8,54.3,29.94,WSW,252,0.0,0.0,56,0.00,,,0.00,Wunderground v.1.15,2013-05-09 00:55:00,
2013-05-08 19:56:00,70.7,54.2,29.94,WSW,252,0.0,0.0,56,0.00,,,0.00,Wunderground v.1.15,2013-05-09 00:56:00,
2013-05-08 19:57:00,70.6,53.6,29.94,WSW,252,0.0,0.0,55,0.00,,,0.00,Wunderground v.1.15,2013-05-09 00:57:00,
2013-05-08 20:00:00,70.2,53.8,29.94,WSW,252,0.0,0.0,56,0.00,,,0.00,Wunderground v.1.15,2013-05-09 01:00:00,
2013-05-08 20:01:00,70.1,53.7,29.94,WSW,252,0.0,0.0,56,0.00,,,0.00,Wunderground v.1.15,2013-05-09 01:01:00,
2013-05-08 20:04:00,69.8,53.4,29.94,WSW,252,0.0,0.0,56,0.00,,,0.00,Wunderground v.1.15,2013-05-09 01:04:00,
2013-05-08 20:05:00,69.7,53.8,29.94,WSW,252,0.0,0.0,57,0.00,,,0.00,Wunderground v.1.15,2013-05-09 01:05:00,
2013-05-08 20:06:00,69.6,53.7,29.94,WSW,252,0.0,0.0,57,0.00,,,0.00,Wunderground v.1.15,2013-05-09 01:06:00,
2013-05-08 20:07:00,69.5,54.1,29.94,WSW,252,0.0,0.0,58,0.00,,,0.00,Wunderground v.1.15,2013-05-09 01:07:00,
2013-05-08 20:08:00,69.4,54.0,29.94,WSW,252,0.0,0.0,58,0.00,,,0.00,Wunderground v.1.15,2013-05-09 01:08:00,
2013-05-08 20:10:00,69.2,52.8,29.94,WSW,252,0.0,0.0,56,0.00,,,0.00,Wunderground v.1.15,2013-05-09 01:10:00,
2013-05-08 20:14:00,68.9,53.5,29.94,WSW,252,0.0,0.0,58,0.00,,,0.00,Wunderground v.1.15,2013-05-09 01:14:00,
2013-05-08 20:16:00,68.6,53.2,29.94,WSW,252,0.0,0.0,58,0.00,,,0.00,Wunderground v.1.15,2013-05-09 01:16:00,
2013-05-08 20:18:00,68.5,52.2,29.94,WSW,252,0.0,0.0,56,0.00,,,0.00,Wunderground v.1.15,2013-05-09 01:18:00,
2013-05-08 20:19:00,68.4,52.6,29.94,WSW,252,0.0,0.0,57,0.00,,,0.00,Wunderground v.1.15,2013-05-09 01:19:00,
2013-05-08 20:20:00,68.3,52.5,29.93,WSW,252,0.0,0.0,57,0.00,,,0.00,Wunderground v.1.15,2013-05-09 01:20:00,
2013-05-08 20:21:00,68.3,52.5,29.94,WSW,252,0.0,0.0,57,0.00,,,0.00,Wunderground v.1.15,2013-05-09 01:21:00,
2013-05-08 20:25:00,67.9,52.1,29.94,WSW,252,0.0,0.0,57,0.00,,,0.00,Wunderground v.1.15,2013-05-09 01:25:00,
2013-05-08 20:26:00,67.8,52.0,29.94,WSW,252,0.0,0.0,57,0.00,,,0.00,Wunderground v.1.15,2013-05-09 01:26:00,
2013-05-08 20:27:00,67.7,51.9,29.94,WSW,252,0.0,0.0,57,0.00,,,0.00,Wunderground v.1.15,2013-05-09 01:27:00,
2013-05-08 20:28:00,67.7,52.4,29.94,WSW,252,0.0,0.0,58,0.00,,,0.00,Wunderground v.1.15,2013-05-09 01:28:00,
2013-05-08 20:31:00,67.4,52.1,29.94,WSW,252,0.0,0.0,58,0.00,,,0.00,Wunderground v.1.15,2013-05-09 01:31:00,
2013-05-08 20:33:00,67.3,52.0,29.94,WSW,252,0.0,0.0,58,0.00,,,0.00,Wunderground v.1.15,2013-05-09 01:33:00,
2013-05-08 20:34:00,67.2,52.4,29.94,WSW,252,0.0,0.0,59,0.00,,,0.00,Wunderground v.1.15,2013-05-09 01:34:00,
2013-05-08 20:36:00,67.1,53.2,29.94,WSW,252,0.0,0.0,61,0.00,,,0.00,Wunderground v.1.15,2013-05-09 01:36:00,
2013-05-08 20:38:00,66.9,53.5,29.94,WSW,252,0.0,0.0,62,0.00,,,0.00,Wunderground v.1.15,2013-05-09 01:38:00,
2013-05-08 20:39:00,66.9,53.5,29.94,WSW,252,0.0,0.0,62,0.00,,,0.00,Wunderground v.1.15,2013-05-09 01:39:00,
2013-05-08 20:43:00,66.4,53.8,29.94,WSW,252,0.0,0.0,64,0.00,,,0.00,Wunderground v.1.15,2013-05-09 01:43:00,
2013-05-08 20:44:00,66.4,53.8,29.94,WSW,251,0.0,0.0,64,0.00,,,0.00,Wunderground v.1.15,2013-05-09 01:44:00,
2013-05-08 20:46:00,66.2,53.2,29.94,WSW,252,0.0,0.0,63,0.00,,,0.00,Wunderground v.1.15,2013-05-09 01:46:00,
2013-05-08 20:47:00,66.1,53.1,29.94,WSW,252,0.0,0.0,63,0.00,,,0.00,Wunderground v.1.15,2013-05-09 01:47:00,
2013-05-08 20:49:00,65.9,53.4,29.94,WSW,252,0.0,0.0,64,0.00,,,0.00,Wunderground v.1.15,2013-05-09 01:49:00,
2013-05-08 20:50:00,65.8,53.3,29.94,WSW,252,0.0,0.0,64,0.00,,,0.00,Wunderground v.1.15,2013-05-09 01:50:00,
2013-05-08 20:53:00,65.6,53.1,29.94,WSW,252,0.0,0.0,64,0.00,,,0.00,Wunderground v.1.15,2013-05-09 01:53:00,
2013-05-08 20:54:00,65.5,53.0,29.94,WSW,251,0.0,0.0,64,0.00,,,0.00,Wunderground v.1.15,2013-05-09 01:54:00,
2013-05-08 20:56:00,65.4,52.9,29.94,WSW,252,0.0,0.0,64,0.00,,,0.00,Wunderground v.1.15,2013-05-09 01:56:00,
2013-05-08 20:59:00,65.2,53.1,29.94,WSW,252,0.0,0.0,65,0.00,,,0.00,Wunderground v.1.15,2013-05-09 01:59:00,
2013-05-08 21:01:00,65.1,53.0,29.94,WSW,252,0.0,0.0,65,0.00,,,0.00,Wunderground v.1.15,2013-05-09 02:01:00,
2013-05-08 21:02:00,65.0,53.4,29.94,WSW,252,0.0,0.0,66,0.00,,,0.00,Wunderground v.1.15,2013-05-09 02:02:00,
2013-05-08 21:06:00,64.7,53.1,29.94,WSW,252,0.0,0.0,66,0.00,,,0.00,Wunderground v.1.15,2013-05-09 02:06:00,
2013-05-08 21:08:00,64.6,53.0,29.95,WSW,252,0.0,0.0,66,0.00,,,0.00,Wunderground v.1.15,2013-05-09 02:08:00,
2013-05-08 21:09:00,64.6,53.0,29.94,WSW,252,0.0,0.0,66,0.00,,,0.00,Wunderground v.1.15,2013-05-09 02:09:00,
2013-05-08 21:13:00,64.4,53.6,29.94,WSW,251,0.0,0.0,68,0.00,,,0.00,Wunderground v.1.15,2013-05-09 02:13:00,
2013-05-08 21:14:00,64.4,53.6,29.95,WSW,252,0.0,0.0,68,0.00,,,0.00,Wunderground v.1.15,2013-05-09 02:14:00,
2013-05-08 21:15:00,64.3,53.9,29.94,WSW,252,0.0,0.0,69,0.00,,,0.00,Wunderground v.1.15,2013-05-09 02:15:00,
2013-05-08 21:17:00,64.3,54.7,29.95,WSW,251,0.0,0.0,71,0.00,,,0.00,Wunderground v.1.15,2013-05-09 02:17:00,
2013-05-08 21:19:00,64.1,54.5,29.94,WSW,252,0.0,0.0,71,0.00,,,0.00,Wunderground v.1.15,2013-05-09 02:19:00,
2013-05-08 21:22:00,64.0,54.8,29.94,WSW,252,0.0,0.0,72,0.00,,,0.00,Wunderground v.1.15,2013-05-09 02:22:00,
2013-05-08 21:23:00,64.0,54.8,29.95,WSW,251,0.0,0.0,72,0.00,,,0.00,Wunderground v.1.15,2013-05-09 02:23:00,
2013-05-08 21:27:00,63.9,55.1,29.95,WSW,252,0.0,0.0,73,0.00,,,0.00,Wunderground v.1.15,2013-05-09 02:27:00,
2013-05-08 21:28:00,63.9,54.7,29.95,WSW,251,0.0,0.0,72,0.00,,,0.00,Wunderground v.1.15,2013-05-09 02:28:00,
2013-05-08 21:31:00,63.8,54.2,29.95,WSW,252,0.0,0.0,71,0.00,,,0.00,Wunderground v.1.15,2013-05-09 02:31:00,
2013-05-08 21:32:00,63.8,54.2,29.95,WSW,252,0.0,0.0,71,0.00,,,0.00,Wunderground v.1.15,2013-05-09 02:32:00,
2013-05-08 21:33:00,63.8,53.4,29.95,WSW,251,0.0,0.0,69,0.00,,,0.00,Wunderground v.1.15,2013-05-09 02:33:00,
2013-05-08 21:34:00,63.8,53.0,29.95,WSW,252,0.0,0.0,68,0.00,,,0.00,Wunderground v.1.15,2013-05-09 02:34:00,
2013-05-08 21:36:00,63.7,52.9,29.95,WSW,252,0.0,0.0,68,0.00,,,0.00,Wunderground v.1.15,2013-05-09 02:36:00,
2013-05-08 21:37:00,63.7,52.5,29.95,WSW,252,0.0,0.0,67,0.00,,,0.00,Wunderground v.1.15,2013-05-09 02:37:00,
2013-05-08 21:39:00,63.7,53.3,29.95,WSW,252,0.0,0.0,69,0.00,,,0.00,Wunderground v.1.15,2013-05-09 02:39:00,
2013-05-08 21:41:00,63.7,52.9,29.95,WSW,252,0.0,0.0,68,0.00,,,0.00,Wunderground v.1.15,2013-05-09 02:41:00,
2013-05-08 21:43:00,63.7,53.3,29.95,WSW,252,0.0,0.0,69,0.00,,,0.00,Wunderground v.1.15,2013-05-09 02:43:00,
2013-05-08 21:44:00,63.7,53.3,29.95,WSW,252,0.0,0.0,69,0.00,,,0.00,Wunderground v.1.15,2013-05-09 02:44:00,
2013-05-08 21:47:00,63.8,55.0,29.95,WSW,251,0.0,0.0,73,0.00,,,0.00,Wunderground v.1.15,2013-05-09 02:47:00,
2013-05-08 21:48:00,63.8,55.0,29.95,WSW,252,0.0,0.0,73,0.00,,,0.00,Wunderground v.1.15,2013-05-09 02:48:00,
2013-05-08 21:49:00,63.9,55.1,29.95,WSW,252,0.0,0.0,73,0.00,,,0.00,Wunderground v.1.15,2013-05-09 02:49:00,
2013-05-08 21:50:00,63.9,55.1,29.95,WSW,252,0.0,0.0,73,0.00,,,0.00,Wunderground v.1.15,2013-05-09 02:50:00,
2013-05-08 21:54:00,63.9,55.4,29.95,WSW,251,0.0,0.0,74,0.00,,,0.00,Wunderground v.1.15,2013-05-09 02:54:00,
2013-05-08 21:55:00,63.9,55.4,29.95,WSW,252,0.0,0.0,74,0.00,,,0.00,Wunderground v.1.15,2013-05-09 02:55:00,
2013-05-08 21:59:00,63.9,56.5,29.95,WSW,252,0.0,0.0,77,0.00,,,0.00,Wunderground v.1.15,2013-05-09 02:59:00,
2013-05-08 22:00:00,63.9,56.5,29.95,WSW,251,0.0,0.0,77,0.00,,,0.00,Wunderground v.1.15,2013-05-09 03:00:00,
2013-05-08 22:02:00,63.9,55.8,29.95,WSW,252,0.0,0.0,75,0.00,,,0.00,Wunderground v.1.15,2013-05-09 03:02:00,
2013-05-08 22:03:00,63.8,56.1,29.95,WSW,252,0.0,0.0,76,0.00,,,0.00,Wunderground v.1.15,2013-05-09 03:03:00,
2013-05-08 22:06:00,63.7,54.9,29.95,WSW,251,0.0,0.0,73,0.00,,,0.00,Wunderground v.1.15,2013-05-09 03:06:00,
2013-05-08 22:09:00,63.7,55.6,29.95,WSW,251,0.0,0.0,75,0.00,,,0.00,Wunderground v.1.15,2013-05-09 03:09:00,
2013-05-08 22:10:00,63.8,56.4,29.95,WSW,252,0.0,0.0,77,0.00,,,0.00,Wunderground v.1.15,2013-05-09 03:10:00,
2013-05-08 22:11:00,63.8,56.4,29.95,WSW,251,0.0,0.0,77,0.00,,,0.00,Wunderground v.1.15,2013-05-09 03:11:00,
2013-05-08 22:12:00,63.8,55.7,29.95,WSW,252,0.0,0.0,75,0.00,,,0.00,Wunderground v.1.15,2013-05-09 03:12:00,
2013-05-08 22:15:00,64.0,57.7,29.95,WSW,249,0.0,3.0,80,0.00,,,0.00,Wunderground v.1.15,2013-05-09 03:15:00,
2013-05-08 22:16:00,64.0,57.7,29.95,WSW,253,0.0,3.0,80,0.00,,,0.00,Wunderground v.1.15,2013-05-09 03:16:00,
2013-05-08 22:18:00,64.1,57.8,29.95,WSW,253,1.0,3.0,80,0.00,,,0.00,Wunderground v.1.15,2013-05-09 03:18:00,
2013-05-08 22:20:00,64.1,56.4,29.95,WSW,255,1.0,1.0,76,0.00,,,0.00,Wunderground v.1.15,2013-05-09 03:20:00,
2013-05-08 22:22:00,64.3,55.8,29.95,WSW,253,1.0,1.0,74,0.00,,,0.00,Wunderground v.1.15,2013-05-09 03:22:00,
2013-05-08 22:23:00,64.4,55.9,29.95,WSW,253,1.0,1.0,74,0.00,,,0.00,Wunderground v.1.15,2013-05-09 03:23:00,
2013-05-08 22:25:00,64.7,55.8,29.95,WSW,246,1.0,1.0,73,0.00,,,0.00,Wunderground v.1.15,2013-05-09 03:25:00,
2013-05-08 22:26:00,64.9,56.0,29.95,West,264,1.0,1.0,73,0.00,,,0.00,Wunderground v.1.15,2013-05-09 03:26:00,
2013-05-08 22:28:00,65.2,55.6,29.95,WSW,257,1.0,1.0,71,0.00,,,0.00,Wunderground v.1.15,2013-05-09 03:28:00,
2013-05-08 22:30:00,65.5,55.5,29.95,West,266,1.0,1.0,70,0.00,,,0.00,Wunderground v.1.15,2013-05-09 03:30:00,
2013-05-08 22:32:00,65.8,55.3,29.95,WSW,258,0.0,1.0,69,0.00,,,0.00,Wunderground v.1.15,2013-05-09 03:32:00,
2013-05-08 22:33:00,65.8,55.7,29.95,West,263,1.0,1.0,70,0.00,,,0.00,Wunderground v.1.15,2013-05-09 03:33:00,
2013-05-08 22:34:00,65.9,55.4,29.95,WSW,253,0.0,1.0,69,0.00,,,0.00,Wunderground v.1.15,2013-05-09 03:34:00,
2013-05-08 22:35:00,65.9,55.4,29.95,WSW,240,0.0,2.0,69,0.00,,,0.00,Wunderground v.1.15,2013-05-09 03:35:00,
2013-05-08 22:37:00,66.1,55.6,29.95,West,276,1.0,2.0,69,0.00,,,0.00,Wunderground v.1.15,2013-05-09 03:37:00,
2013-05-08 22:38:00,66.2,55.7,29.95,West,281,1.0,2.0,69,0.00,,,0.00,Wunderground v.1.15,2013-05-09 03:38:00,
2013-05-08 22:41:00,66.2,56.1,29.95,West,262,0.0,0.0,70,0.00,,,0.00,Wunderground v.1.15,2013-05-09 03:41:00,
2013-05-08 22:42:00,66.2,56.1,29.95,West,266,0.0,0.0,70,0.00,,,0.00,Wunderground v.1.15,2013-05-09 03:42:00,
2013-05-08 22:43:00,66.1,56.0,29.95,West,266,0.0,0.0,70,0.00,,,0.00,Wunderground v.1.15,2013-05-09 03:43:00,
2013-05-08 22:46:00,65.9,55.8,29.95,West,266,0.0,0.0,70,0.00,,,0.00,Wunderground v.1.15,2013-05-09 03:46:00,
2013-05-08 22:48:00,65.8,56.1,29.95,West,264,0.0,0.0,71,0.00,,,0.00,Wunderground v.1.15,2013-05-09 03:48:00,
2013-05-08 22:49:00,65.7,56.0,29.95,West,264,0.0,0.0,71,0.00,,,0.00,Wunderground v.1.15,2013-05-09 03:49:00,
2013-05-08 22:52:00,65.5,55.8,29.95,West,264,0.0,0.0,71,0.00,,,0.00,Wunderground v.1.15,2013-05-09 03:52:00,
2013-05-08 22:54:00,65.4,55.7,29.94,West,264,0.0,0.0,71,0.00,,,0.00,Wunderground v.1.15,2013-05-09 03:54:00,
2013-05-08 22:55:00,65.3,56.0,29.94,West,264,0.0,0.0,72,0.00,,,0.00,Wunderground v.1.15,2013-05-09 03:55:00,
2013-05-08 22:56:00,65.2,55.9,29.94,West,264,0.0,0.0,72,0.00,,,0.00,Wunderground v.1.15,2013-05-09 03:56:00,
2013-05-08 23:01:00,64.8,56.3,29.94,West,264,0.0,0.0,74,0.00,,,0.00,Wunderground v.1.15,2013-05-09 04:01:00,
2013-05-08 23:02:00,64.7,56.2,29.94,West,264,0.0,0.0,74,0.00,,,0.00,Wunderground v.1.15,2013-05-09 04:02:00,
2013-05-08 23:05:00,64.5,56.4,29.94,WSW,258,0.0,0.0,75,0.00,,,0.00,Wunderground v.1.15,2013-05-09 04:05:00,
2013-05-08 23:06:00,64.4,56.3,29.94,WSW,258,0.0,0.0,75,0.00,,,0.00,Wunderground v.1.15,2013-05-09 04:06:00,
2013-05-08 23:08:00,64.5,56.4,29.94,WSW,253,0.0,0.0,75,0.00,,,0.00,Wunderground v.1.15,2013-05-09 04:08:00,
2013-05-08 23:10:00,64.6,56.5,29.94,WSW,253,0.0,0.0,75,0.00,,,0.00,Wunderground v.1.15,2013-05-09 04:10:00,
2013-05-08 23:11:00,64.6,56.5,29.94,WSW,253,0.0,0.0,75,0.00,,,0.00,Wunderground v.1.15,2013-05-09 04:11:00,
2013-05-08 23:13:00,64.6,56.5,29.94,WSW,253,0.0,0.0,75,0.00,,,0.00,Wunderground v.1.15,2013-05-09 04:13:00,
2013-05-08 23:15:00,64.5,56.8,29.94,West,259,0.0,0.0,76,0.00,,,0.00,Wunderground v.1.15,2013-05-09 04:15:00,
2013-05-08 23:17:00,64.4,56.7,29.94,West,260,0.0,0.0,76,0.00,,,0.00,Wunderground v.1.15,2013-05-09 04:17:00,
2013-05-08 23:20:00,64.4,56.7,29.94,West,269,0.0,1.0,76,0.00,,,0.00,Wunderground v.1.15,2013-05-09 04:20:00,
2013-05-08 23:21:00,64.4,56.7,29.94,WSW,257,0.0,1.0,76,0.00,,,0.00,Wunderground v.1.15,2013-05-09 04:21:00,
2013-05-08 23:22:00,64.5,56.8,29.94,WSW,256,0.0,1.0,76,0.00,,,0.00,Wunderground v.1.15,2013-05-09 04:22:00,
2013-05-08 23:23:00,64.5,56.8,29.94,WSW,255,0.0,1.0,76,0.00,,,0.00,Wunderground v.1.15,2013-05-09 04:23:00,
2013-05-08 23:25:00,64.4,56.7,29.94,WSW,256,0.0,1.0,76,0.00,,,0.00,Wunderground v.1.15,2013-05-09 04:25:00,
2013-05-08 23:28:00,64.3,56.9,29.94,WSW,256,0.0,1.0,77,0.00,,,0.00,Wunderground v.1.15,2013-05-09 04:28:00,
2013-05-08 23:30:00,64.0,57.0,29.94,WSW,256,0.0,0.0,78,0.00,,,0.00,Wunderground v.1.15,2013-05-09 04:30:00,
2013-05-08 23:31:00,63.8,56.8,29.94,WSW,256,0.0,0.0,78,0.00,,,0.00,Wunderground v.1.15,2013-05-09 04:31:00,
2013-05-08 23:34:00,63.4,56.4,29.94,WSW,256,0.0,0.0,78,0.00,,,0.00,Wunderground v.1.15,2013-05-09 04:34:00,
2013-05-08 23:36:00,63.2,56.6,29.94,WSW,256,0.0,0.0,79,0.00,,,0.00,Wunderground v.1.15,2013-05-09 04:36:00,
2013-05-08 23:38:00,63.0,56.4,29.94,WSW,256,0.0,0.0,79,0.00,,,0.00,Wunderground v.1.15,2013-05-09 04:38:00,
2013-05-08 23:40:00,62.9,56.3,29.94,WSW,256,0.0,0.0,79,0.00,,,0.00,Wunderground v.1.15,2013-05-09 04:40:00,
2013-05-08 23:43:00,62.8,56.5,29.94,WSW,256,0.0,0.0,80,0.00,,,0.00,Wunderground v.1.15,2013-05-09 04:43:00,
2013-05-08 23:45:00,62.8,56.5,29.94,South,187,0.0,0.0,80,0.00,,,0.00,Wunderground v.1.15,2013-05-09 04:45:00,
2013-05-08 23:47:00,62.8,56.9,29.94,South,188,0.0,0.0,81,0.00,,,0.00,Wunderground v.1.15,2013-05-09 04:47:00,
2013-05-08 23:48:00,62.7,56.4,29.94,South,187,0.0,0.0,80,0.00,,,0.00,Wunderground v.1.15,2013-05-09 04:48:00,
2013-05-08 23:50:00,62.7,56.4,29.94,South,187,0.0,0.0,80,0.00,,,0.00,Wunderground v.1.15,2013-05-09 04:50:00,
2013-05-08 23:53:00,62.8,56.9,29.94,South,188,0.0,0.0,81,0.00,,,0.00,Wunderground v.1.15,2013-05-09 04:53:00,
2013-05-08 23:55:00,62.8,56.9,29.94,South,188,0.0,0.0,81,0.00,,,0.00,Wunderground v.1.15,2013-05-09 04:55:00,
2013-05-08 23:56:00,62.9,57.0,29.94,South,188,0.0,0.0,81,0.00,,,0.00,Wunderground v.1.15,2013-05-09 04:56:00,
2013-05-08 23:57:00,63.1,57.2,29.94,South,188,0.0,0.0,81,0.00,,,0.00,Wunderground v.1.15,2013-05-09 04:57:00,
2013-05-08 23:59:00,63.2,57.3,29.94,South,190,0.0,0.0,81,0.00,,,0.00,Wunderground v.1.15,2013-05-09 04:59:00,